Wetterdaten: Samstag, 28.06.2014
Datum Zeit Temp. Aussen +5cm Feuchte Auss Luftdruck Regen Sonnenschein Regendauer UV Solar Windben
28.06.2014 00:00 14,4 C 13,3 C 98 % 1013,3 hPa 0,0 l/m 0 min 0 min 0,0 UV-I 0 W/m 6,3 km/h (2 Bft)
28.06.2014 00:02 14,3 C 13,3 C 98 % 1013,3 hPa 0,0 l/m 0 min 0 min 0,0 UV-I 0 W/m 6,3 km/h (2 Bft)
28.06.2014 00:05 14,2 C 13,3 C 98 % 1013,4 hPa 0,0 l/m 0 min 0 min 0,0 UV-I 0 W/m 8,4 km/h (2 Bft)
28.06.2014 00:06 14,2 C 13,3 C 98 % 1013,4 hPa 0,0 l/m 0 min 0 min 0,0 UV-I 0 W/m 8,4 km/h (2 Bft)
28.06.2014 00:08 14,2 C 13,3 C 98 % 1013,3 hPa 0,0 l/m 0 min 0 min 0,0 UV-I 0 W/m 0,0 km/h (0 Bft)
28.06.2014 00:10 14,2 C 13,3 C 98 % 1013,3 hPa 0,0 l/m 0 min 0 min 0,0 UV-I 0 W/m 0,0 km/h (0 Bft)
28.06.2014 00:12 14,2 C 12,8 C 98 % 1013,3 hPa 0,0 l/m 0 min 0 min 0,0 UV-I 0 W/m 0,0 km/h (0 Bft)
28.06.2014 00:14 14,2 C 12,8 C 98 % 1013,3 hPa 0,0 l/m 0 min 0 min 0,0 UV-I 0 W/m 0,0 km/h (0 Bft)
28.06.2014 00:16 14,2 C 13,3 C 98 % 1013,3 hPa 0,0 l/m 0 min 0 min 0,0 UV-I 0 W/m 0,0 km/h (0 Bft)
28.06.2014 00:18 14,2 C 13,3 C 98 % 1013,2 hPa 0,0 l/m 0 min 0 min 0,0 UV-I 0 W/m 2,1 km/h (1 Bft)
28.06.2014 00:20 14,2 C 13,3 C 98 % 1013,2 hPa 0,0 l/m 0 min 0 min 0,0 UV-I 0 W/m 0,0 km/h (0 Bft)
28.06.2014 00:22 14,2 C 13,3 C 98 % 1013,2 hPa 0,0 l/m 0 min 0 min 0,0 UV-I 0 W/m 0,0 km/h (0 Bft)
28.06.2014 00:24 14,2 C 13,3 C 98 % 1013,2 hPa 0,0 l/m 0 min 0 min 0,0 UV-I 0 W/m 2,1 km/h (1 Bft)
28.06.2014 00:26 14,2 C 13,3 C 98 % 1013,1 hPa 0,0 l/m 0 min 0 min 0,0 UV-I 0 W/m 0,0 km/h (0 Bft)
28.06.2014 00:28 14,2 C 13,3 C 98 % 1013,2 hPa 0,0 l/m 0 min 0 min 0,0 UV-I 0 W/m 0,0 km/h (0 Bft)
28.06.2014 00:30 14,2 C 13,3 C 98 % 1013,1 hPa 0,0 l/m 0 min 0 min 0,0 UV-I 0 W/m 0,0 km/h (0 Bft)
28.06.2014 00:32 14,2 C 13,3 C 98 % 1013,0 hPa 0,0 l/m 0 min 0 min 0,0 UV-I 0 W/m 2,1 km/h (1 Bft)
28.06.2014 00:34 14,2 C 13,3 C 98 % 1013,0 hPa 0,0 l/m 0 min 0 min 0,0 UV-I 0 W/m 0,0 km/h (0 Bft)
28.06.2014 00:36 14,2 C 13,3 C 98 % 1013,1 hPa 0,0 l/m 0 min 0 min 0,0 UV-I 0 W/m 0,0 km/h (0 Bft)
28.06.2014 00:38 14,2 C 13,3 C 98 % 1013,0 hPa 0,0 l/m 0 min 0 min 0,0 UV-I 0 W/m 0,0 km/h (0 Bft)
28.06.2014 00:40 14,3 C 13,3 C 98 % 1013,0 hPa 0,0 l/m 0 min 0 min 0,0 UV-I 0 W/m 0,0 km/h (0 Bft)
28.06.2014 00:42 14,3 C 13,3 C 98 % 1013,1 hPa 0,0 l/m 0 min 0 min 0,0 UV-I 0 W/m 0,0 km/h (0 Bft)
28.06.2014 00:44 14,2 C 13,3 C 98 % 1013,2 hPa 0,0 l/m 0 min 0 min 0,0 UV-I 0 W/m 0,0 km/h (0 Bft)
28.06.2014 00:46 14,2 C 12,8 C 98 % 1013,2 hPa 0,0 l/m 0 min 0 min 0,0 UV-I 0 W/m 0,0 km/h (0 Bft)
28.06.2014 00:48 14,2 C 12,8 C 98 % 1013,1 hPa 0,0 l/m 0 min 0 min 0,0 UV-I 0 W/m 0,0 km/h (0 Bft)
28.06.2014 00:50 14,2 C 12,8 C 98 % 1013,1 hPa 0,0 l/m 0 min 0 min 0,0 UV-I 0 W/m 0,0 km/h (0 Bft)
28.06.2014 00:52 14,2 C 12,8 C 98 % 1013,0 hPa 0,0 l/m 0 min 0 min 0,0 UV-I 0 W/m 0,0 km/h (0 Bft)
28.06.2014 00:54 14,2 C 12,8 C 98 % 1013,0 hPa 0,0 l/m 0 min 0 min 0,0 UV-I 0 W/m 6,3 km/h (2 Bft)
28.06.2014 00:56 14,2 C 13,3 C 98 % 1013,0 hPa 0,0 l/m 0 min 0 min 0,0 UV-I 0 W/m 0,0 km/h (0 Bft)
28.06.2014 00:58 14,2 C 12,8 C 98 % 1013,0 hPa 0,0 l/m 0 min 0 min 0,0 UV-I 0 W/m 0,0 km/h (0 Bft)
28.06.2014 01:00 14,2 C 12,8 C 98 % 1013,1 hPa 0,0 l/m 0 min 0 min 0,0 UV-I 0 W/m 0,0 km/h (0 Bft)
28.06.2014 01:02 14,2 C 12,8 C 98 % 1013,1 hPa 0,0 l/m 0 min 0 min 0,0 UV-I 0 W/m 0,0 km/h (0 Bft)
28.06.2014 01:04 14,2 C 12,8 C 98 % 1013,2 hPa 0,0 l/m 0 min 0 min 0,0 UV-I 0 W/m 0,0 km/h (0 Bft)
28.06.2014 01:06 14,2 C 12,8 C 98 % 1013,2 hPa 0,2 l/m 0 min 0 min 0,0 UV-I 0 W/m 0,0 km/h (0 Bft)
28.06.2014 01:08 14,2 C 12,8 C 100 % 1013,2 hPa 0,0 l/m 0 min 0 min 0,0 UV-I 0 W/m 0,0 km/h (0 Bft)
28.06.2014 01:10 14,1 C 12,8 C 98 % 1013,2 hPa 0,0 l/m 0 min 0 min 0,0 UV-I 0 W/m 0,0 km/h (0 Bft)
28.06.2014 01:12 14,0 C 12,8 C 98 % 1013,2 hPa 0,0 l/m 0 min 0 min 0,0 UV-I 0 W/m 2,1 km/h (1 Bft)
28.06.2014 01:14 14,0 C 12,8 C 98 % 1013,2 hPa 0,0 l/m 0 min 0 min 0,0 UV-I 0 W/m 8,4 km/h (2 Bft)
28.06.2014 01:16 14,0 C 12,8 C 98 % 1013,2 hPa 0,0 l/m 0 min 0 min 0,0 UV-I 0 W/m 8,4 km/h (2 Bft)
28.06.2014 01:18 13,9 C 12,8 C 98 % 1013,2 hPa 0,0 l/m 0 min 0 min 0,0 UV-I 0 W/m 8,4 km/h (2 Bft)
28.06.2014 01:20 13,9 C 12,8 C 98 % 1013,2 hPa 0,0 l/m 0 min 0 min 0,0 UV-I 0 W/m 8,4 km/h (2 Bft)
28.06.2014 01:22 13,9 C 12,8 C 98 % 1013,1 hPa 0,0 l/m 0 min 0 min 0,0 UV-I 0 W/m 6,3 km/h (2 Bft)
28.06.2014 01:24 13,9 C 12,8 C 98 % 1013,2 hPa 0,0 l/m 0 min 0 min 0,0 UV-I 0 W/m 6,3 km/h (2 Bft)
28.06.2014 01:26 13,9 C 12,8 C 98 % 1013,1 hPa 0,0 l/m 0 min 0 min 0,0 UV-I 0 W/m 8,4 km/h (2 Bft)
28.06.2014 01:28 13,8 C 12,8 C 98 % 1013,1 hPa 0,0 l/m 0 min 0 min 0,0 UV-I 0 W/m 6,3 km/h (2 Bft)
28.06.2014 01:30 13,8 C 12,8 C 98 % 1013,2 hPa 0,0 l/m 0 min 0 min 0,0 UV-I 0 W/m 8,4 km/h (2 Bft)
28.06.2014 01:32 13,8 C 12,8 C 98 % 1013,2 hPa 0,0 l/m 0 min 0 min 0,0 UV-I 0 W/m 10,5 km/h (2 Bft)
28.06.2014 01:34 13,8 C 12,8 C 98 % 1013,2 hPa 0,0 l/m 0 min 0 min 0,0 UV-I 0 W/m 10,5 km/h (2 Bft)
28.06.2014 01:36 13,8 C 12,8 C 98 % 1013,2 hPa 0,0 l/m 0 min 0 min 0,0 UV-I 0 W/m 10,5 km/h (2 Bft)
28.06.2014 01:38 13,8 C 12,8 C 98 % 1013,2 hPa 0,0 l/m 0 min 0 min 0,0 UV-I 0 W/m 12,6 km/h (3 Bft)
28.06.2014 01:40 13,8 C 12,8 C 98 % 1013,1 hPa 0,0 l/m 0 min 0 min 0,0 UV-I 0 W/m 12,6 km/h (3 Bft)
28.06.2014 01:42 13,8 C 12,8 C 98 % 1013,2 hPa 0,0 l/m 0 min 0 min 0,0 UV-I 0 W/m 10,5 km/h (2 Bft)
28.06.2014 01:44 13,8 C 12,2 C 98 % 1013,1 hPa 0,0 l/m 0 min 0 min 0,0 UV-I 0 W/m 10,5 km/h (2 Bft)
28.06.2014 01:46 13,8 C 12,8 C 98 % 1013,1 hPa 0,0 l/m 0 min 0 min 0,0 UV-I 0 W/m 12,6 km/h (3 Bft)
28.06.2014 01:48 13,8 C 12,8 C 98 % 1013,1 hPa 0,0 l/m 0 min 0 min 0,0 UV-I 0 W/m 14,6 km/h (3 Bft)
28.06.2014 01:50 13,8 C 12,8 C 98 % 1013,1 hPa 0,0 l/m 0 min 0 min 0,0 UV-I 0 W/m 10,5 km/h (2 Bft)
28.06.2014 01:52 13,8 C 12,8 C 98 % 1013,1 hPa 0,0 l/m 0 min 0 min 0,0 UV-I 0 W/m 12,6 km/h (3 Bft)
28.06.2014 01:54 13,8 C 12,8 C 98 % 1013,0 hPa 0,0 l/m 0 min 0 min 0,0 UV-I 0 W/m 10,5 km/h (2 Bft)
28.06.2014 01:56 13,7 C 12,8 C 98 % 1013,1 hPa 0,0 l/m 0 min 0 min 0,0 UV-I 0 W/m 14,6 km/h (3 Bft)
28.06.2014 01:58 13,8 C 12,8 C 98 % 1013,0 hPa 0,0 l/m 0 min 0 min 0,0 UV-I 0 W/m 12,6 km/h (3 Bft)
28.06.2014 02:00 13,8 C 12,8 C 98 % 1013,0 hPa 0,0 l/m 0 min 0 min 0,0 UV-I 0 W/m 8,4 km/h (2 Bft)
28.06.2014 02:02 13,8 C 12,8 C 98 % 1013,0 hPa 0,0 l/m 0 min 0 min 0,0 UV-I 0 W/m 16,7 km/h (3 Bft)
28.06.2014 02:04 13,8 C 12,8 C 98 % 1013,0 hPa 0,0 l/m 0 min 0 min 0,0 UV-I 0 W/m 10,5 km/h (2 Bft)
28.06.2014 02:06 13,8 C 12,8 C 98 % 1013,0 hPa 0,0 l/m 0 min 0 min 0,0 UV-I 0 W/m 12,6 km/h (3 Bft)
28.06.2014 02:08 13,8 C 12,8 C 98 % 1013,0 hPa 0,0 l/m 0 min 0 min 0,0 UV-I 0 W/m 12,6 km/h (3 Bft)
28.06.2014 02:10 13,8 C 12,8 C 98 % 1013,0 hPa 0,0 l/m 0 min 0 min 0,0 UV-I 0 W/m 10,5 km/h (2 Bft)
28.06.2014 02:12 13,8 C 12,8 C 99 % 1012,9 hPa 0,0 l/m 0 min 0 min 0,0 UV-I 0 W/m 8,4 km/h (2 Bft)
28.06.2014 02:14 13,8 C 12,8 C 99 % 1012,9 hPa 0,0 l/m 0 min 0 min 0,0 UV-I 0 W/m 14,6 km/h (3 Bft)
28.06.2014 02:16 13,8 C 12,8 C 99 % 1012,9 hPa 0,0 l/m 0 min 0 min 0,0 UV-I 0 W/m 12,6 km/h (3 Bft)
28.06.2014 02:18 13,8 C 12,8 C 99 % 1012,9 hPa 0,0 l/m 0 min 0 min 0,0 UV-I 0 W/m 12,6 km/h (3 Bft)
28.06.2014 02:20 13,8 C 12,8 C 99 % 1012,9 hPa 0,0 l/m 0 min 0 min 0,0 UV-I 0 W/m 10,5 km/h (2 Bft)
28.06.2014 02:22 13,7 C 12,8 C 99 % 1012,9 hPa 0,0 l/m 0 min 0 min 0,0 UV-I 0 W/m 10,5 km/h (2 Bft)
28.06.2014 02:24 13,7 C 12,8 C 99 % 1012,9 hPa 0,0 l/m 0 min 0 min 0,0 UV-I 0 W/m 6,3 km/h (2 Bft)
28.06.2014 02:26 13,7 C 12,8 C 99 % 1012,9 hPa 0,0 l/m 0 min 0 min 0,0 UV-I 0 W/m 6,3 km/h (2 Bft)
28.06.2014 02:28 13,7 C 12,8 C 99 % 1012,9 hPa 0,0 l/m 0 min 0 min 0,0 UV-I 0 W/m 10,5 km/h (2 Bft)
28.06.2014 02:30 13,7 C 12,8 C 99 % 1012,8 hPa 0,0 l/m 0 min 0 min 0,0 UV-I 0 W/m 12,6 km/h (3 Bft)
28.06.2014 02:32 13,7 C 12,8 C 99 % 1012,8 hPa 0,0 l/m 0 min 0 min 0,0 UV-I 0 W/m 12,6 km/h (3 Bft)
28.06.2014 02:34 13,7 C 12,8 C 99 % 1012,8 hPa 0,0 l/m 0 min 0 min 0,0 UV-I 0 W/m 18,8 km/h (3 Bft)
28.06.2014 02:36 13,7 C 12,8 C 99 % 1012,8 hPa 0,0 l/m 0 min 0 min 0,0 UV-I 0 W/m 16,7 km/h (3 Bft)
28.06.2014 02:38 13,7 C 12,8 C 99 % 1012,8 hPa 0,0 l/m 0 min 0 min 0,0 UV-I 0 W/m 10,5 km/h (2 Bft)
28.06.2014 02:40 13,6 C 12,2 C 99 % 1012,8 hPa 0,0 l/m 0 min 0 min 0,0 UV-I 0 W/m 10,5 km/h (2 Bft)
28.06.2014 02:42 13,6 C 12,2 C 99 % 1012,7 hPa 0,0 l/m 0 min 0 min 0,0 UV-I 0 W/m 10,5 km/h (2 Bft)
28.06.2014 02:44 13,6 C 12,2 C 99 % 1012,7 hPa 0,0 l/m 0 min 0 min 0,0 UV-I 0 W/m 8,4 km/h (2 Bft)
28.06.2014 02:46 13,6 C 12,2 C 99 % 1012,7 hPa 0,0 l/m 0 min 0 min 0,0 UV-I 0 W/m 0,0 km/h (0 Bft)
28.06.2014 02:48 13,5 C 12,2 C 99 % 1012,7 hPa 0,0 l/m 0 min 0 min 0,0 UV-I 0 W/m 6,3 km/h (2 Bft)
28.06.2014 02:50 13,5 C 12,2 C 99 % 1012,7 hPa 0,0 l/m 0 min 0 min 0,0 UV-I 0 W/m 8,4 km/h (2 Bft)
28.06.2014 02:52 13,4 C 12,2 C 99 % 1012,7 hPa 0,0 l/m 0 min 0 min 0,0 UV-I 0 W/m 6,3 km/h (2 Bft)
28.06.2014 02:54 13,4 C 12,2 C 99 % 1012,7 hPa 0,0 l/m 0 min 0 min 0,0 UV-I 0 W/m 8,4 km/h (2 Bft)
28.06.2014 02:56 13,4 C 12,2 C 99 % 1012,7 hPa 0,0 l/m 0 min 0 min 0,0 UV-I 0 W/m 4,2 km/h (1 Bft)
28.06.2014 02:58 13,4 C 12,2 C 99 % 1012,7 hPa 0,0 l/m 0 min 0 min 0,0 UV-I 0 W/m 0,0 km/h (0 Bft)
28.06.2014 03:00 13,4 C 12,2 C 99 % 1012,6 hPa 0,0 l/m 0 min 0 min 0,0 UV-I 0 W/m 2,1 km/h (1 Bft)
28.06.2014 03:02 13,3 C 12,2 C 99 % 1012,5 hPa 0,0 l/m 0 min 0 min 0,0 UV-I 0 W/m 2,1 km/h (1 Bft)
28.06.2014 03:04 13,3 C 12,2 C 99 % 1012,6 hPa 0,0 l/m 0 min 0 min 0,0 UV-I 0 W/m 6,3 km/h (2 Bft)
28.06.2014 03:06 13,3 C 12,2 C 99 % 1012,6 hPa 0,0 l/m 0 min 0 min 0,0 UV-I 0 W/m 2,1 km/h (1 Bft)
28.06.2014 03:08 13,3 C 12,2 C 99 % 1012,6 hPa 0,0 l/m 0 min 0 min 0,0 UV-I 0 W/m 2,1 km/h (1 Bft)
28.06.2014 03:10 13,3 C 12,2 C 99 % 1012,6 hPa 0,0 l/m 0 min 0 min 0,0 UV-I 0 W/m 0,0 km/h (0 Bft)
28.06.2014 03:12 13,3 C 11,7 C 99 % 1012,6 hPa 0,0 l/m 0 min 0 min 0,0 UV-I 0 W/m 2,1 km/h (1 Bft)
28.06.2014 03:14 13,3 C 12,2 C 99 % 1012,6 hPa 0,0 l/m 0 min 0 min 0,0 UV-I 0 W/m 6,3 km/h (2 Bft)
28.06.2014 03:16 13,3 C 12,2 C 99 % 1012,6 hPa 0,0 l/m 0 min 0 min 0,0 UV-I 0 W/m 0,0 km/h (0 Bft)
28.06.2014 03:18 13,3 C 12,2 C 99 % 1012,5 hPa 0,0 l/m 0 min 0 min 0,0 UV-I 0 W/m 0,0 km/h (0 Bft)
28.06.2014 03:20 13,3 C 12,2 C 99 % 1012,6 hPa 0,0 l/m 0 min 0 min 0,0 UV-I 0 W/m 0,0 km/h (0 Bft)
28.06.2014 03:22 13,3 C 11,7 C 99 % 1012,7 hPa 0,0 l/m 0 min 0 min 0,0 UV-I 0 W/m 0,0 km/h (0 Bft)
28.06.2014 03:24 13,3 C 11,7 C 99 % 1012,6 hPa 0,0 l/m 0 min 0 min 0,0 UV-I 0 W/m 0,0 km/h (0 Bft)
28.06.2014 03:26 13,2 C 11,7 C 99 % 1012,6 hPa 0,0 l/m 0 min 0 min 0,0 UV-I 0 W/m 2,1 km/h (1 Bft)
28.06.2014 03:28 13,2 C 12,2 C 99 % 1012,6 hPa 0,0 l/m 0 min 0 min 0,0 UV-I 0 W/m 10,5 km/h (2 Bft)
28.06.2014 03:30 13,2 C 12,2 C 99 % 1012,5 hPa 0,0 l/m 0 min 0 min 0,0 UV-I 0 W/m 8,4 km/h (2 Bft)
28.06.2014 03:32 13,2 C 12,2 C 99 % 1012,5 hPa 0,0 l/m 0 min 0 min 0,0 UV-I 0 W/m 0,0 km/h (0 Bft)
28.06.2014 03:34 13,2 C 11,7 C 99 % 1012,5 hPa 0,0 l/m 0 min 0 min 0,0 UV-I 0 W/m 2,1 km/h (1 Bft)
28.06.2014 03:36 13,2 C 11,7 C 99 % 1012,6 hPa 0,0 l/m 0 min 0 min 0,0 UV-I 0 W/m 8,4 km/h (2 Bft)
28.06.2014 03:38 13,2 C 11,7 C 99 % 1012,5 hPa 0,0 l/m 0 min 0 min 0,0 UV-I 0 W/m 0,0 km/h (0 Bft)
28.06.2014 03:40 13,1 C 11,7 C 99 % 1012,5 hPa 0,0 l/m 0 min 0 min 0,0 UV-I 0 W/m 2,1 km/h (1 Bft)
28.06.2014 03:42 13,1 C 11,7 C 99 % 1012,5 hPa 0,0 l/m 0 min 0 min 0,0 UV-I 0 W/m 0,0 km/h (0 Bft)
28.06.2014 03:44 13,2 C 11,7 C 99 % 1012,5 hPa 0,0 l/m 0 min 0 min 0,0 UV-I 0 W/m 0,0 km/h (0 Bft)
28.06.2014 03:46 13,2 C 11,7 C 99 % 1012,5 hPa 0,0 l/m 0 min 0 min 0,0 UV-I 0 W/m 0,0 km/h (0 Bft)
28.06.2014 03:48 13,1 C 11,7 C 99 % 1012,5 hPa 0,0 l/m 0 min 0 min 0,0 UV-I 0 W/m 0,0 km/h (0 Bft)
28.06.2014 03:50 13,1 C 11,7 C 99 % 1012,5 hPa 0,0 l/m 0 min 0 min 0,0 UV-I 0 W/m 0,0 km/h (0 Bft)
28.06.2014 03:52 13,1 C 11,7 C 99 % 1012,4 hPa 0,0 l/m 0 min 0 min 0,0 UV-I 0 W/m 0,0 km/h (0 Bft)
28.06.2014 03:54 13,1 C 11,7 C 99 % 1012,5 hPa 0,0 l/m 0 min 0 min 0,0 UV-I 0 W/m 2,1 km/h (1 Bft)
28.06.2014 03:56 13,1 C 11,7 C 99 % 1012,5 hPa 0,0 l/m 0 min 0 min 0,0 UV-I 0 W/m 0,0 km/h (0 Bft)
28.06.2014 03:58 13,1 C 11,7 C 99 % 1012,5 hPa 0,0 l/m 0 min 0 min 0,0 UV-I 0 W/m 0,0 km/h (0 Bft)
28.06.2014 04:00 13,1 C 11,7 C 99 % 1012,6 hPa 0,0 l/m 0 min 0 min 0,0 UV-I 0 W/m 0,0 km/h (0 Bft)
28.06.2014 04:02 13,1 C 11,7 C 99 % 1012,5 hPa 0,0 l/m 0 min 0 min 0,0 UV-I 0 W/m 0,0 km/h (0 Bft)
28.06.2014 04:04 13,1 C 11,7 C 99 % 1012,6 hPa 0,0 l/m 0 min 0 min 0,0 UV-I 0 W/m 0,0 km/h (0 Bft)
28.06.2014 04:06 13,1 C 11,7 C 99 % 1012,6 hPa 0,0 l/m 0 min 0 min 0,0 UV-I 0 W/m 0,0 km/h (0 Bft)
28.06.2014 04:08 13,0 C 11,7 C 99 % 1012,5 hPa 0,0 l/m 0 min 0 min 0,0 UV-I 0 W/m 0,0 km/h (0 Bft)
28.06.2014 04:10 13,0 C 11,7 C 99 % 1012,5 hPa 0,0 l/m 0 min 0 min 0,0 UV-I 0 W/m 6,3 km/h (2 Bft)
28.06.2014 04:12 13,0 C 11,7 C 99 % 1012,4 hPa 0,0 l/m 0 min 0 min 0,0 UV-I 0 W/m 6,3 km/h (2 Bft)
28.06.2014 04:14 13,0 C 11,7 C 99 % 1012,5 hPa 0,0 l/m 0 min 0 min 0,0 UV-I 0 W/m 8,4 km/h (2 Bft)
28.06.2014 04:16 13,0 C 11,7 C 99 % 1012,4 hPa 0,0 l/m 0 min 0 min 0,0 UV-I 0 W/m 10,5 km/h (2 Bft)
28.06.2014 04:18 13,0 C 11,7 C 99 % 1012,4 hPa 0,0 l/m 0 min 0 min 0,0 UV-I 0 W/m 10,5 km/h (2 Bft)
28.06.2014 04:20 13,1 C 11,7 C 99 % 1012,5 hPa 0,0 l/m 0 min 0 min 0,0 UV-I 0 W/m 12,6 km/h (3 Bft)
28.06.2014 04:22 13,0 C 11,7 C 99 % 1012,4 hPa 0,0 l/m 0 min 0 min 0,0 UV-I 0 W/m 10,5 km/h (2 Bft)
28.06.2014 04:24 13,0 C 11,7 C 99 % 1012,5 hPa 0,0 l/m 0 min 0 min 0,0 UV-I 0 W/m 8,4 km/h (2 Bft)
28.06.2014 04:26 13,0 C 11,7 C 99 % 1012,5 hPa 0,0 l/m 0 min 0 min 0,0 UV-I 0 W/m 6,3 km/h (2 Bft)
28.06.2014 04:28 13,1 C 11,7 C 99 % 1012,5 hPa 0,0 l/m 0 min 0 min 0,0 UV-I 0 W/m 6,3 km/h (2 Bft)
28.06.2014 04:30 13,0 C 11,7 C 99 % 1012,5 hPa 0,0 l/m 0 min 0 min 0,0 UV-I 0 W/m 6,3 km/h (2 Bft)
28.06.2014 04:32 13,0 C 11,7 C 99 % 1012,5 hPa 0,0 l/m 0 min 0 min 0,0 UV-I 0 W/m 2,1 km/h (1 Bft)
28.06.2014 04:34 12,9 C 11,7 C 99 % 1012,5 hPa 0,0 l/m 0 min 0 min 0,0 UV-I 0 W/m 8,4 km/h (2 Bft)
28.06.2014 04:36 12,9 C 11,7 C 99 % 1012,5 hPa 0,0 l/m 0 min 0 min 0,0 UV-I 0 W/m 8,4 km/h (2 Bft)
28.06.2014 04:38 12,9 C 11,7 C 99 % 1012,5 hPa 0,0 l/m 0 min 0 min 0,0 UV-I 0 W/m 2,1 km/h (1 Bft)
28.06.2014 04:40 12,9 C 11,7 C 99 % 1012,5 hPa 0,0 l/m 0 min 0 min 0,0 UV-I 0 W/m 0,0 km/h (0 Bft)
28.06.2014 04:42 12,9 C 11,7 C 99 % 1012,5 hPa 0,0 l/m 0 min 0 min 0,0 UV-I 0 W/m 0,0 km/h (0 Bft)
28.06.2014 04:44 13,0 C 11,7 C 99 % 1012,5 hPa 0,0 l/m 0 min 0 min 0,0 UV-I 0 W/m 0,0 km/h (0 Bft)
28.06.2014 04:46 12,9 C 11,7 C 99 % 1012,5 hPa 0,0 l/m 0 min 0 min 0,0 UV-I 0 W/m 2,1 km/h (1 Bft)
28.06.2014 04:48 12,9 C 11,7 C 99 % 1012,5 hPa 0,0 l/m 0 min 0 min 0,0 UV-I 0 W/m 0,0 km/h (0 Bft)
28.06.2014 04:50 13,0 C 11,7 C 99 % 1012,5 hPa 0,0 l/m 0 min 0 min 0,0 UV-I 0 W/m 0,0 km/h (0 Bft)
28.06.2014 04:52 12,9 C 11,7 C 99 % 1012,4 hPa 0,0 l/m 0 min 0 min 0,0 UV-I 0 W/m 0,0 km/h (0 Bft)
28.06.2014 04:54 12,9 C 11,7 C 99 % 1012,4 hPa 0,0 l/m 0 min 0 min 0,0 UV-I 0 W/m 0,0 km/h (0 Bft)
28.06.2014 04:56 12,9 C 11,7 C 99 % 1012,4 hPa 0,0 l/m 0 min 0 min 0,0 UV-I 0 W/m 0,0 km/h (0 Bft)
28.06.2014 04:58 12,9 C 11,7 C 99 % 1012,4 hPa 0,0 l/m 0 min 0 min 0,0 UV-I 0 W/m 8,4 km/h (2 Bft)
28.06.2014 05:00 12,9 C 11,7 C 99 % 1012,4 hPa 0,0 l/m 0 min 0 min 0,0 UV-I 0 W/m 8,4 km/h (2 Bft)
28.06.2014 05:02 12,9 C 11,7 C 99 % 1012,4 hPa 0,0 l/m 0 min 0 min 0,0 UV-I 0 W/m 8,4 km/h (2 Bft)
28.06.2014 05:04 12,9 C 11,7 C 99 % 1012,4 hPa 0,0 l/m 0 min 0 min 0,0 UV-I 0 W/m 2,1 km/h (1 Bft)
28.06.2014 05:06 12,9 C 11,7 C 99 % 1012,3 hPa 0,0 l/m 0 min 0 min 0,0 UV-I 0 W/m 4,2 km/h (1 Bft)
28.06.2014 05:08 12,9 C 11,7 C 99 % 1012,4 hPa 0,0 l/m 0 min 0 min 0,0 UV-I 0 W/m 6,3 km/h (2 Bft)
28.06.2014 05:10 12,9 C 11,7 C 99 % 1012,3 hPa 0,0 l/m 0 min 0 min 0,0 UV-I 0 W/m 4,2 km/h (1 Bft)
28.06.2014 05:12 12,9 C 11,7 C 99 % 1012,3 hPa 0,0 l/m 0 min 0 min 0,0 UV-I 0 W/m 6,3 km/h (2 Bft)
28.06.2014 05:14 12,9 C 11,7 C 99 % 1012,4 hPa 0,0 l/m 0 min 0 min 0,0 UV-I 0 W/m 0,0 km/h (0 Bft)
28.06.2014 05:16 12,9 C 11,7 C 99 % 1012,3 hPa 0,0 l/m 0 min 0 min 0,0 UV-I 0 W/m 0,0 km/h (0 Bft)
28.06.2014 05:18 12,9 C 11,7 C 99 % 1012,3 hPa 0,0 l/m 0 min 0 min 0,0 UV-I 0 W/m 6,3 km/h (2 Bft)
28.06.2014 05:20 12,9 C 11,7 C 99 % 1012,2 hPa 0,0 l/m 0 min 0 min 0,0 UV-I 5 W/m 6,3 km/h (2 Bft)
28.06.2014 05:22 12,9 C 11,7 C 99 % 1012,4 hPa 0,0 l/m 0 min 0 min 0,0 UV-I 7 W/m 2,1 km/h (1 Bft)
28.06.2014 05:24 12,9 C 11,7 C 99 % 1012,3 hPa 0,0 l/m 0 min 0 min 0,0 UV-I 7 W/m 8,4 km/h (2 Bft)
28.06.2014 05:26 12,9 C 11,7 C 99 % 1012,3 hPa 0,0 l/m 0 min 0 min 0,0 UV-I 9 W/m 6,3 km/h (2 Bft)
28.06.2014 05:28 12,9 C 11,7 C 99 % 1012,2 hPa 0,0 l/m 0 min 0 min 0,0 UV-I 9 W/m 8,4 km/h (2 Bft)
28.06.2014 05:30 12,9 C 11,7 C 99 % 1012,2 hPa 0,0 l/m 0 min 0 min 0,0 UV-I 9 W/m 10,5 km/h (2 Bft)
28.06.2014 05:32 12,9 C 11,7 C 99 % 1012,3 hPa 0,0 l/m 0 min 0 min 0,0 UV-I 11 W/m 8,4 km/h (2 Bft)
28.06.2014 05:34 12,9 C 11,7 C 99 % 1012,3 hPa 0,0 l/m 0 min 0 min 0,0 UV-I 11 W/m 8,4 km/h (2 Bft)
28.06.2014 05:36 12,9 C 11,7 C 99 % 1012,3 hPa 0,0 l/m 2 min 0 min 0,0 UV-I 12 W/m 8,4 km/h (2 Bft)
28.06.2014 05:38 12,9 C 11,7 C 99 % 1012,4 hPa 0,0 l/m 2 min 0 min 0,0 UV-I 14 W/m 8,4 km/h (2 Bft)
28.06.2014 05:40 12,9 C 11,7 C 99 % 1012,2 hPa 0,0 l/m 2 min 0 min 0,0 UV-I 16 W/m 8,4 km/h (2 Bft)
28.06.2014 05:42 12,9 C 11,7 C 99 % 1012,3 hPa 0,0 l/m 2 min 0 min 0,0 UV-I 18 W/m 10,5 km/h (2 Bft)
28.06.2014 05:44 12,9 C 11,7 C 99 % 1012,3 hPa 0,0 l/m 0 min 0 min 0,0 UV-I 19 W/m 8,4 km/h (2 Bft)
28.06.2014 05:46 12,9 C 11,7 C 99 % 1012,3 hPa 0,0 l/m 2 min 0 min 0,0 UV-I 23 W/m 10,5 km/h (2 Bft)
28.06.2014 05:48 12,9 C 12,2 C 99 % 1012,3 hPa 0,0 l/m 2 min 0 min 0,0 UV-I 25 W/m 8,4 km/h (2 Bft)
28.06.2014 05:50 12,9 C 12,2 C 99 % 1012,2 hPa 0,0 l/m 0 min 0 min 0,0 UV-I 25 W/m 6,3 km/h (2 Bft)
28.06.2014 05:52 12,9 C 11,7 C 99 % 1012,2 hPa 0,0 l/m 0 min 0 min 0,0 UV-I 25 W/m 10,5 km/h (2 Bft)
28.06.2014 05:54 12,9 C 12,2 C 99 % 1012,1 hPa 0,0 l/m 0 min 0 min 0,0 UV-I 25 W/m 2,1 km/h (1 Bft)
28.06.2014 05:56 12,9 C 12,2 C 99 % 1012,2 hPa 0,0 l/m 0 min 0 min 0,0 UV-I 25 W/m 0,0 km/h (0 Bft)
28.06.2014 05:58 13,0 C 12,2 C 99 % 1012,2 hPa 0,0 l/m 0 min 0 min 0,0 UV-I 25 W/m 8,4 km/h (2 Bft)
28.06.2014 06:00 13,0 C 12,2 C 99 % 1012,2 hPa 0,0 l/m 0 min 0 min 0,0 UV-I 26 W/m 6,3 km/h (2 Bft)
28.06.2014 06:02 13,0 C 12,2 C 99 % 1012,2 hPa 0,0 l/m 0 min 0 min 0,0 UV-I 26 W/m 6,3 km/h (2 Bft)
28.06.2014 06:06 13,0 C 12,2 C 99 % 1012,2 hPa 0,0 l/m 0 min 0 min 0,0 UV-I 28 W/m 8,4 km/h (2 Bft)
28.06.2014 06:08 13,0 C 12,2 C 99 % 1012,2 hPa 0,0 l/m 0 min 0 min 0,0 UV-I 30 W/m 8,4 km/h (2 Bft)
28.06.2014 06:10 13,0 C 12,2 C 99 % 1012,2 hPa 0,0 l/m 0 min 0 min 0,0 UV-I 32 W/m 12,6 km/h (3 Bft)
28.06.2014 06:12 13,0 C 12,2 C 99 % 1012,1 hPa 0,0 l/m 0 min 0 min 0,0 UV-I 33 W/m 8,4 km/h (2 Bft)
28.06.2014 06:14 13,0 C 12,2 C 99 % 1012,2 hPa 0,0 l/m 0 min 0 min 0,0 UV-I 35 W/m 8,4 km/h (2 Bft)
28.06.2014 06:16 13,0 C 12,2 C 99 % 1012,2 hPa 0,0 l/m 0 min 0 min 0,0 UV-I 37 W/m 8,4 km/h (2 Bft)
28.06.2014 06:18 13,0 C 12,2 C 99 % 1012,3 hPa 0,0 l/m 0 min 0 min 0,0 UV-I 39 W/m 8,4 km/h (2 Bft)
28.06.2014 06:20 13,0 C 12,2 C 99 % 1012,2 hPa 0,0 l/m 0 min 0 min 0,0 UV-I 40 W/m 0,0 km/h (0 Bft)
28.06.2014 06:22 13,0 C 12,2 C 99 % 1012,3 hPa 0,0 l/m 0 min 0 min 0,0 UV-I 42 W/m 8,4 km/h (2 Bft)
28.06.2014 06:24 13,1 C 12,2 C 99 % 1012,3 hPa 0,0 l/m 0 min 0 min 0,0 UV-I 44 W/m 8,4 km/h (2 Bft)
28.06.2014 06:26 13,1 C 12,2 C 99 % 1012,3 hPa 0,0 l/m 0 min 0 min 0,0 UV-I 44 W/m 8,4 km/h (2 Bft)
28.06.2014 06:28 13,1 C 12,2 C 99 % 1012,4 hPa 0,0 l/m 0 min 0 min 0,0 UV-I 46 W/m 8,4 km/h (2 Bft)
28.06.2014 06:30 13,1 C 12,2 C 99 % 1012,4 hPa 0,0 l/m 0 min 0 min 0,0 UV-I 46 W/m 10,5 km/h (2 Bft)
28.06.2014 06:32 13,1 C 12,2 C 99 % 1012,2 hPa 0,0 l/m 0 min 0 min 0,0 UV-I 46 W/m 8,4 km/h (2 Bft)
28.06.2014 06:34 13,1 C 12,2 C 99 % 1012,3 hPa 0,0 l/m 0 min 0 min 0,0 UV-I 49 W/m 10,5 km/h (2 Bft)
28.06.2014 06:36 13,1 C 12,2 C 99 % 1012,3 hPa 0,0 l/m 0 min 0 min 0,0 UV-I 49 W/m 10,5 km/h (2 Bft)
28.06.2014 06:38 13,1 C 12,2 C 99 % 1012,4 hPa 0,0 l/m 0 min 0 min 0,0 UV-I 54 W/m 8,4 km/h (2 Bft)
28.06.2014 06:40 13,2 C 12,2 C 99 % 1012,3 hPa 0,0 l/m 0 min 0 min 0,0 UV-I 53 W/m 6,3 km/h (2 Bft)
28.06.2014 06:42 13,2 C 12,2 C 99 % 1012,3 hPa 0,0 l/m 0 min 0 min 0,0 UV-I 53 W/m 6,3 km/h (2 Bft)
28.06.2014 06:44 13,2 C 12,2 C 99 % 1012,2 hPa 0,0 l/m 0 min 0 min 0,0 UV-I 53 W/m 2,1 km/h (1 Bft)
28.06.2014 06:46 13,2 C 12,2 C 99 % 1012,3 hPa 0,0 l/m 0 min 0 min 0,0 UV-I 53 W/m 6,3 km/h (2 Bft)
28.06.2014 06:48 13,2 C 12,2 C 99 % 1012,2 hPa 0,0 l/m 0 min 0 min 0,0 UV-I 53 W/m 8,4 km/h (2 Bft)
28.06.2014 06:50 13,2 C 12,2 C 99 % 1012,4 hPa 0,0 l/m 0 min 0 min 0,0 UV-I 60 W/m 8,4 km/h (2 Bft)
28.06.2014 06:52 13,2 C 12,2 C 99 % 1012,4 hPa 0,0 l/m 0 min 0 min 0,0 UV-I 65 W/m 6,3 km/h (2 Bft)
28.06.2014 06:54 13,2 C 12,2 C 99 % 1012,3 hPa 0,0 l/m 0 min 0 min 0,0 UV-I 70 W/m 10,5 km/h (2 Bft)
28.06.2014 06:56 13,2 C 12,2 C 99 % 1012,3 hPa 0,0 l/m 0 min 0 min 0,0 UV-I 90 W/m 4,2 km/h (1 Bft)
28.06.2014 06:58 13,2 C 12,2 C 99 % 1012,3 hPa 0,0 l/m 0 min 0 min 0,0 UV-I 95 W/m 8,4 km/h (2 Bft)
28.06.2014 07:00 13,3 C 12,2 C 99 % 1012,4 hPa 0,0 l/m 2 min 0 min 0,0 UV-I 120 W/m 10,5 km/h (2 Bft)
28.06.2014 07:02 13,3 C 12,2 C 98 % 1012,4 hPa 0,0 l/m 2 min 0 min 0,0 UV-I 160 W/m 10,5 km/h (2 Bft)
28.06.2014 07:04 13,4 C 12,2 C 98 % 1012,4 hPa 0,0 l/m 2 min 0 min 0,0 UV-I 171 W/m 10,5 km/h (2 Bft)
28.06.2014 07:06 13,4 C 12,8 C 98 % 1012,3 hPa 0,0 l/m 2 min 0 min 0,0 UV-I 153 W/m 2,1 km/h (1 Bft)
28.06.2014 07:08 13,5 C 12,8 C 98 % 1012,3 hPa 0,0 l/m 2 min 0 min 0,0 UV-I 165 W/m 10,5 km/h (2 Bft)
28.06.2014 07:10 13,5 C 12,8 C 99 % 1012,3 hPa 0,0 l/m 2 min 0 min 0,0 UV-I 141 W/m 12,6 km/h (3 Bft)
28.06.2014 07:12 13,6 C 12,8 C 99 % 1012,3 hPa 0,0 l/m 2 min 0 min 0,0 UV-I 137 W/m 10,5 km/h (2 Bft)
28.06.2014 07:14 13,7 C 12,8 C 99 % 1012,3 hPa 0,0 l/m 0 min 0 min 0,0 UV-I 123 W/m 8,4 km/h (2 Bft)
28.06.2014 07:16 13,7 C 12,8 C 98 % 1012,3 hPa 0,0 l/m 0 min 0 min 0,0 UV-I 123 W/m 6,3 km/h (2 Bft)
28.06.2014 07:18 13,7 C 12,8 C 98 % 1012,3 hPa 0,0 l/m 0 min 0 min 0,0 UV-I 135 W/m 10,5 km/h (2 Bft)
28.06.2014 07:20 13,7 C 12,8 C 98 % 1012,3 hPa 0,0 l/m 0 min 0 min 0,0 UV-I 130 W/m 6,3 km/h (2 Bft)
28.06.2014 07:22 13,8 C 12,8 C 98 % 1012,3 hPa 0,0 l/m 0 min 0 min 0,0 UV-I 120 W/m 10,5 km/h (2 Bft)
28.06.2014 07:24 13,8 C 12,8 C 98 % 1012,3 hPa 0,0 l/m 0 min 0 min 0,0 UV-I 116 W/m 6,3 km/h (2 Bft)
28.06.2014 07:26 13,9 C 12,8 C 99 % 1012,3 hPa 0,0 l/m 0 min 0 min 0,0 UV-I 114 W/m 12,6 km/h (3 Bft)
28.06.2014 07:28 13,8 C 12,8 C 99 % 1012,3 hPa 0,0 l/m 0 min 0 min 0,0 UV-I 107 W/m 12,6 km/h (3 Bft)
28.06.2014 07:30 13,8 C 12,8 C 99 % 1012,3 hPa 0,0 l/m 0 min 0 min 0,0 UV-I 105 W/m 12,6 km/h (3 Bft)
28.06.2014 07:32 13,9 C 12,8 C 99 % 1012,3 hPa 0,0 l/m 0 min 0 min 0,0 UV-I 111 W/m 10,5 km/h (2 Bft)
28.06.2014 07:34 13,9 C 12,8 C 99 % 1012,3 hPa 0,0 l/m 0 min 0 min 0,0 UV-I 120 W/m 10,5 km/h (2 Bft)
28.06.2014 07:36 13,9 C 12,8 C 98 % 1012,3 hPa 0,0 l/m 0 min 0 min 0,0 UV-I 127 W/m 8,4 km/h (2 Bft)
28.06.2014 07:38 13,9 C 13,3 C 98 % 1012,3 hPa 0,0 l/m 0 min 0 min 0,0 UV-I 148 W/m 4,2 km/h (1 Bft)
28.06.2014 07:40 14,1 C 13,3 C 98 % 1012,3 hPa 0,0 l/m 0 min 0 min 0,0 UV-I 151 W/m 10,5 km/h (2 Bft)
28.06.2014 07:42 14,2 C 13,3 C 98 % 1012,3 hPa 0,0 l/m 0 min 0 min 0,0 UV-I 165 W/m 4,2 km/h (1 Bft)
28.06.2014 07:44 14,2 C 13,3 C 99 % 1012,3 hPa 0,0 l/m 0 min 0 min 0,0 UV-I 134 W/m 2,1 km/h (1 Bft)
28.06.2014 07:46 14,2 C 13,3 C 98 % 1012,3 hPa 0,0 l/m 0 min 0 min 0,0 UV-I 134 W/m 0,0 km/h (0 Bft)
28.06.2014 07:48 14,2 C 13,3 C 98 % 1012,3 hPa 0,0 l/m 0 min 0 min 0,0 UV-I 134 W/m 12,6 km/h (3 Bft)
28.06.2014 07:50 14,2 C 13,3 C 98 % 1012,3 hPa 0,0 l/m 0 min 0 min 0,0 UV-I 141 W/m 6,3 km/h (2 Bft)
28.06.2014 07:52 14,3 C 13,9 C 98 % 1012,3 hPa 0,0 l/m 0 min 0 min 0,0 UV-I 153 W/m 12,6 km/h (3 Bft)
28.06.2014 07:54 14,3 C 13,9 C 98 % 1012,2 hPa 0,0 l/m 0 min 0 min 0,0 UV-I 149 W/m 8,4 km/h (2 Bft)
28.06.2014 07:56 14,4 C 13,9 C 98 % 1012,2 hPa 0,0 l/m 0 min 0 min 0,0 UV-I 148 W/m 12,6 km/h (3 Bft)
28.06.2014 07:58 14,3 C 13,9 C 98 % 1012,3 hPa 0,0 l/m 0 min 0 min 0,0 UV-I 148 W/m 14,6 km/h (3 Bft)
28.06.2014 08:00 14,3 C 13,9 C 98 % 1012,3 hPa 0,0 l/m 0 min 0 min 0,0 UV-I 146 W/m 12,6 km/h (3 Bft)
28.06.2014 08:02 14,3 C 13,9 C 98 % 1012,2 hPa 0,0 l/m 0 min 0 min 0,0 UV-I 146 W/m 6,3 km/h (2 Bft)
28.06.2014 08:04 14,4 C 13,9 C 98 % 1012,2 hPa 0,0 l/m 0 min 0 min 0,0 UV-I 151 W/m 6,3 km/h (2 Bft)
28.06.2014 08:06 14,5 C 13,9 C 98 % 1012,3 hPa 0,0 l/m 0 min 0 min 0,0 UV-I 144 W/m 10,5 km/h (2 Bft)
28.06.2014 08:08 14,5 C 13,9 C 98 % 1012,2 hPa 0,0 l/m 0 min 0 min 0,0 UV-I 148 W/m 10,5 km/h (2 Bft)
28.06.2014 08:10 14,5 C 13,9 C 98 % 1012,2 hPa 0,0 l/m 0 min 0 min 0,0 UV-I 153 W/m 10,5 km/h (2 Bft)
28.06.2014 08:12 14,6 C 13,9 C 98 % 1012,2 hPa 0,0 l/m 0 min 0 min 0,0 UV-I 155 W/m 6,3 km/h (2 Bft)
28.06.2014 08:14 14,7 C 13,9 C 98 % 1012,2 hPa 0,0 l/m 0 min 0 min 0,0 UV-I 160 W/m 10,5 km/h (2 Bft)
28.06.2014 08:16 14,7 C 13,9 C 98 % 1012,2 hPa 0,0 l/m 0 min 0 min 0,0 UV-I 169 W/m 2,1 km/h (1 Bft)
28.06.2014 08:18 14,7 C 13,9 C 98 % 1012,2 hPa 0,0 l/m 0 min 0 min 0,0 UV-I 169 W/m 4,2 km/h (1 Bft)
28.06.2014 08:20 14,8 C 13,9 C 98 % 1012,2 hPa 0,0 l/m 0 min 0 min 0,0 UV-I 153 W/m 2,1 km/h (1 Bft)
28.06.2014 08:22 14,8 C 13,9 C 98 % 1012,2 hPa 0,0 l/m 0 min 0 min 0,0 UV-I 149 W/m 2,1 km/h (1 Bft)
28.06.2014 08:24 14,9 C 13,9 C 98 % 1012,2 hPa 0,0 l/m 0 min 0 min 0,0 UV-I 151 W/m 6,3 km/h (2 Bft)
28.06.2014 08:26 14,8 C 13,9 C 98 % 1012,3 hPa 0,0 l/m 0 min 0 min 0,0 UV-I 155 W/m 0,0 km/h (0 Bft)
28.06.2014 08:28 14,9 C 14,4 C 98 % 1012,1 hPa 0,0 l/m 0 min 0 min 0,0 UV-I 158 W/m 0,0 km/h (0 Bft)
28.06.2014 08:30 15,0 C 14,4 C 98 % 1012,1 hPa 0,0 l/m 0 min 0 min 0,0 UV-I 162 W/m 0,0 km/h (0 Bft)
28.06.2014 08:32 14,9 C 14,4 C 98 % 1012,2 hPa 0,0 l/m 0 min 0 min 0,0 UV-I 162 W/m 0,0 km/h (0 Bft)
28.06.2014 08:34 14,9 C 14,4 C 98 % 1012,1 hPa 0,0 l/m 0 min 0 min 0,0 UV-I 160 W/m 0,0 km/h (0 Bft)
28.06.2014 08:36 15,0 C 14,4 C 97 % 1012,2 hPa 0,0 l/m 0 min 0 min 0,0 UV-I 163 W/m 2,1 km/h (1 Bft)
28.06.2014 08:38 15,1 C 14,4 C 97 % 1012,2 hPa 0,0 l/m 0 min 0 min 0,0 UV-I 172 W/m 0,0 km/h (0 Bft)
28.06.2014 08:40 15,1 C 14,4 C 97 % 1012,3 hPa 0,0 l/m 0 min 0 min 0,0 UV-I 179 W/m 0,0 km/h (0 Bft)
28.06.2014 08:42 15,1 C 14,4 C 97 % 1012,2 hPa 0,0 l/m 0 min 0 min 0,0 UV-I 186 W/m 6,3 km/h (2 Bft)
28.06.2014 08:44 15,1 C 14,4 C 97 % 1012,2 hPa 0,0 l/m 0 min 0 min 0,0 UV-I 197 W/m 8,4 km/h (2 Bft)
28.06.2014 08:46 15,2 C 14,4 C 97 % 1012,2 hPa 0,0 l/m 0 min 0 min 0,0 UV-I 200 W/m 8,4 km/h (2 Bft)
28.06.2014 08:48 15,2 C 14,4 C 97 % 1012,2 hPa 0,0 l/m 0 min 0 min 0,0 UV-I 213 W/m 8,4 km/h (2 Bft)
28.06.2014 08:50 15,3 C 14,4 C 97 % 1012,3 hPa 0,0 l/m 0 min 0 min 0,0 UV-I 206 W/m 8,4 km/h (2 Bft)
28.06.2014 08:52 15,4 C 15,0 C 97 % 1012,3 hPa 0,0 l/m 0 min 0 min 0,0 UV-I 218 W/m 4,2 km/h (1 Bft)
28.06.2014 08:54 15,4 C 15,0 C 97 % 1012,3 hPa 0,0 l/m 0 min 0 min 0,0 UV-I 246 W/m 2,1 km/h (1 Bft)
28.06.2014 08:56 15,5 C 15,0 C 97 % 1012,2 hPa 0,0 l/m 2 min 0 min 0,0 UV-I 272 W/m 0,0 km/h (0 Bft)
28.06.2014 08:58 15,6 C 15,0 C 97 % 1012,2 hPa 0,0 l/m 0 min 0 min 0,0 UV-I 257 W/m 0,0 km/h (0 Bft)
28.06.2014 09:00 15,7 C 15,0 C 96 % 1012,2 hPa 0,0 l/m 0 min 0 min 0,0 UV-I 246 W/m 0,0 km/h (0 Bft)
28.06.2014 09:02 15,7 C 15,0 C 96 % 1012,1 hPa 0,0 l/m 0 min 0 min 0,0 UV-I 250 W/m 2,1 km/h (1 Bft)
28.06.2014 09:04 15,7 C 15,0 C 96 % 1012,2 hPa 0,0 l/m 0 min 0 min 0,5 UV-I 271 W/m 6,3 km/h (2 Bft)
28.06.2014 09:06 15,7 C 15,0 C 96 % 1012,1 hPa 0,0 l/m 0 min 0 min 0,5 UV-I 279 W/m 6,3 km/h (2 Bft)
28.06.2014 09:08 15,8 C 15,0 C 96 % 1012,2 hPa 0,0 l/m 0 min 0 min 0,5 UV-I 264 W/m 0,0 km/h (0 Bft)
28.06.2014 09:10 15,9 C 15,0 C 95 % 1012,3 hPa 0,0 l/m 0 min 0 min 0,5 UV-I 271 W/m 2,1 km/h (1 Bft)
28.06.2014 09:12 15,9 C 15,0 C 95 % 1012,3 hPa 0,0 l/m 0 min 0 min 0,0 UV-I 236 W/m 2,1 km/h (1 Bft)
28.06.2014 09:14 15,9 C 15,0 C 95 % 1012,2 hPa 0,0 l/m 0 min 0 min 0,5 UV-I 248 W/m 8,4 km/h (2 Bft)
28.06.2014 09:16 15,8 C 15,0 C 94 % 1012,2 hPa 0,0 l/m 0 min 0 min 0,6 UV-I 265 W/m 10,5 km/h (2 Bft)
28.06.2014 09:18 15,9 C 15,0 C 94 % 1012,1 hPa 0,0 l/m 2 min 0 min 0,7 UV-I 299 W/m 8,4 km/h (2 Bft)
28.06.2014 09:20 15,9 C 15,0 C 94 % 1012,1 hPa 0,0 l/m 2 min 0 min 0,8 UV-I 327 W/m 8,4 km/h (2 Bft)
28.06.2014 09:22 15,9 C 15,0 C 94 % 1012,2 hPa 0,0 l/m 0 min 0 min 0,7 UV-I 302 W/m 10,5 km/h (2 Bft)
28.06.2014 09:24 16,1 C 15,0 C 93 % 1012,3 hPa 0,0 l/m 0 min 0 min 0,7 UV-I 299 W/m 6,3 km/h (2 Bft)
28.06.2014 09:26 16,1 C 15,0 C 93 % 1012,2 hPa 0,0 l/m 2 min 0 min 0,8 UV-I 330 W/m 16,7 km/h (3 Bft)
28.06.2014 09:28 16,2 C 15,0 C 93 % 1012,3 hPa 0,0 l/m 2 min 0 min 1,0 UV-I 399 W/m 8,4 km/h (2 Bft)
28.06.2014 09:30 16,2 C 15,0 C 92 % 1012,3 hPa 0,0 l/m 2 min 0 min 1,0 UV-I 394 W/m 12,6 km/h (3 Bft)
28.06.2014 09:32 16,3 C 15,0 C 92 % 1012,2 hPa 0,0 l/m 2 min 0 min 1,1 UV-I 353 W/m 10,5 km/h (2 Bft)
28.06.2014 09:34 16,5 C 15,0 C 92 % 1012,1 hPa 0,0 l/m 0 min 0 min 1,0 UV-I 294 W/m 8,4 km/h (2 Bft)
28.06.2014 09:36 16,6 C 15,0 C 92 % 1012,1 hPa 0,0 l/m 2 min 0 min 1,2 UV-I 357 W/m 10,5 km/h (2 Bft)
28.06.2014 09:38 16,6 C 15,6 C 91 % 1012,1 hPa 0,0 l/m 2 min 0 min 1,1 UV-I 406 W/m 6,3 km/h (2 Bft)
28.06.2014 09:40 16,7 C 15,6 C 91 % 1012,2 hPa 0,0 l/m 0 min 0 min 1,0 UV-I 309 W/m 10,5 km/h (2 Bft)
28.06.2014 09:42 16,7 C 15,6 C 90 % 1012,1 hPa 0,0 l/m 0 min 0 min 0,9 UV-I 279 W/m 8,4 km/h (2 Bft)
28.06.2014 09:44 16,7 C 15,6 C 89 % 1012,1 hPa 0,0 l/m 0 min 0 min 0,9 UV-I 264 W/m 12,6 km/h (3 Bft)
28.06.2014 09:46 16,6 C 15,6 C 89 % 1012,1 hPa 0,0 l/m 0 min 0 min 0,9 UV-I 294 W/m 12,6 km/h (3 Bft)
28.06.2014 09:48 16,6 C 15,6 C 89 % 1012,2 hPa 0,0 l/m 0 min 0 min 0,9 UV-I 290 W/m 12,6 km/h (3 Bft)
28.06.2014 09:50 16,5 C 15,6 C 88 % 1012,1 hPa 0,0 l/m 0 min 0 min 0,8 UV-I 271 W/m 10,5 km/h (2 Bft)
28.06.2014 09:52 16,7 C 15,6 C 89 % 1012,1 hPa 0,0 l/m 0 min 0 min 0,7 UV-I 257 W/m 4,2 km/h (1 Bft)
28.06.2014 09:54 16,7 C 15,6 C 88 % 1012,2 hPa 0,0 l/m 0 min 0 min 0,7 UV-I 257 W/m 2,1 km/h (1 Bft)
28.06.2014 09:56 16,7 C 15,6 C 88 % 1012,1 hPa 0,0 l/m 0 min 0 min 0,7 UV-I 267 W/m 2,1 km/h (1 Bft)
28.06.2014 09:58 16,8 C 16,1 C 88 % 1012,1 hPa 0,0 l/m 0 min 0 min 0,8 UV-I 276 W/m 2,1 km/h (1 Bft)
28.06.2014 10:00 16,9 C 16,1 C 89 % 1012,1 hPa 0,0 l/m 0 min 0 min 0,9 UV-I 287 W/m 4,2 km/h (1 Bft)
28.06.2014 10:02 16,8 C 16,1 C 87 % 1012,0 hPa 0,0 l/m 0 min 0 min 1,0 UV-I 287 W/m 14,6 km/h (3 Bft)
28.06.2014 10:04 16,8 C 16,1 C 87 % 1012,0 hPa 0,0 l/m 0 min 0 min 1,1 UV-I 297 W/m 8,4 km/h (2 Bft)
28.06.2014 10:06 16,9 C 16,1 C 88 % 1012,0 hPa 0,0 l/m 0 min 0 min 1,3 UV-I 322 W/m 6,3 km/h (2 Bft)
28.06.2014 10:08 16,9 C 16,1 C 86 % 1012,0 hPa 0,0 l/m 0 min 0 min 1,3 UV-I 323 W/m 14,6 km/h (3 Bft)
28.06.2014 10:10 16,9 C 16,1 C 84 % 1012,0 hPa 0,0 l/m 0 min 0 min 1,2 UV-I 301 W/m 6,3 km/h (2 Bft)
28.06.2014 10:12 16,9 C 16,1 C 84 % 1012,0 hPa 0,0 l/m 0 min 0 min 1,3 UV-I 301 W/m 0,0 km/h (0 Bft)
28.06.2014 10:14 17,2 C 16,1 C 86 % 1012,0 hPa 0,0 l/m 2 min 0 min 2,1 UV-I 413 W/m 2,1 km/h (1 Bft)
28.06.2014 10:16 17,4 C 16,7 C 86 % 1012,0 hPa 0,0 l/m 2 min 0 min 2,3 UV-I 675 W/m 8,4 km/h (2 Bft)
28.06.2014 10:18 17,6 C 17,2 C 86 % 1011,9 hPa 0,0 l/m 2 min 0 min 2,5 UV-I 548 W/m 6,3 km/h (2 Bft)
28.06.2014 10:20 17,6 C 17,2 C 84 % 1011,9 hPa 0,0 l/m 2 min 0 min 2,0 UV-I 436 W/m 2,1 km/h (1 Bft)
28.06.2014 10:22 17,8 C 17,8 C 85 % 1011,9 hPa 0,0 l/m 2 min 0 min 2,0 UV-I 573 W/m 4,2 km/h (1 Bft)
28.06.2014 10:24 17,8 C 17,8 C 83 % 1011,9 hPa 0,0 l/m 2 min 0 min 2,0 UV-I 545 W/m 10,5 km/h (2 Bft)
28.06.2014 10:26 17,7 C 17,2 C 82 % 1011,9 hPa 0,0 l/m 2 min 0 min 1,9 UV-I 468 W/m 8,4 km/h (2 Bft)
28.06.2014 10:28 17,6 C 17,2 C 81 % 1011,8 hPa 0,0 l/m 0 min 0 min 1,6 UV-I 366 W/m 2,1 km/h (1 Bft)
28.06.2014 10:30 17,6 C 17,2 C 82 % 1011,7 hPa 0,0 l/m 2 min 0 min 1,9 UV-I 401 W/m 2,1 km/h (1 Bft)
28.06.2014 10:32 17,8 C 17,2 C 84 % 1011,7 hPa 0,0 l/m 2 min 0 min 1,8 UV-I 385 W/m 6,3 km/h (2 Bft)
28.06.2014 10:34 17,8 C 17,2 C 83 % 1011,7 hPa 0,0 l/m 2 min 0 min 2,2 UV-I 485 W/m 8,4 km/h (2 Bft)
28.06.2014 10:36 17,9 C 17,8 C 82 % 1011,6 hPa 0,0 l/m 2 min 0 min 2,4 UV-I 563 W/m 6,3 km/h (2 Bft)
28.06.2014 10:38 18,0 C 17,8 C 83 % 1011,6 hPa 0,0 l/m 2 min 0 min 2,3 UV-I 541 W/m 4,2 km/h (1 Bft)
28.06.2014 10:40 18,2 C 17,8 C 83 % 1011,6 hPa 0,0 l/m 0 min 0 min 1,6 UV-I 334 W/m 8,4 km/h (2 Bft)
28.06.2014 10:42 18,2 C 17,8 C 83 % 1011,6 hPa 0,0 l/m 0 min 0 min 1,7 UV-I 343 W/m 10,5 km/h (2 Bft)
28.06.2014 10:44 18,1 C 17,8 C 82 % 1011,6 hPa 0,0 l/m 0 min 0 min 1,9 UV-I 380 W/m 8,4 km/h (2 Bft)
28.06.2014 10:46 17,9 C 17,8 C 82 % 1011,6 hPa 0,0 l/m 2 min 0 min 1,8 UV-I 401 W/m 10,5 km/h (2 Bft)
28.06.2014 10:48 17,9 C 17,8 C 80 % 1011,6 hPa 0,0 l/m 0 min 0 min 1,6 UV-I 348 W/m 12,6 km/h (3 Bft)
28.06.2014 10:50 17,9 C 17,8 C 82 % 1011,6 hPa 0,0 l/m 2 min 0 min 1,6 UV-I 432 W/m 10,5 km/h (2 Bft)
28.06.2014 10:52 18,1 C 17,8 C 82 % 1011,6 hPa 0,0 l/m 2 min 0 min 1,8 UV-I 422 W/m 10,5 km/h (2 Bft)
28.06.2014 10:54 18,2 C 17,8 C 83 % 1011,6 hPa 0,0 l/m 0 min 0 min 1,7 UV-I 387 W/m 10,5 km/h (2 Bft)
28.06.2014 10:56 18,3 C 17,8 C 82 % 1011,6 hPa 0,0 l/m 2 min 0 min 2,1 UV-I 404 W/m 12,6 km/h (3 Bft)
28.06.2014 10:58 18,3 C 18,3 C 82 % 1011,6 hPa 0,0 l/m 2 min 0 min 1,9 UV-I 422 W/m 14,6 km/h (3 Bft)
28.06.2014 11:00 18,4 C 18,3 C 81 % 1011,6 hPa 0,0 l/m 0 min 0 min 1,8 UV-I 394 W/m 6,3 km/h (2 Bft)
28.06.2014 11:02 18,5 C 18,3 C 82 % 1011,6 hPa 0,0 l/m 0 min 0 min 1,6 UV-I 343 W/m 6,3 km/h (2 Bft)
28.06.2014 11:04 18,5 C 18,3 C 81 % 1011,6 hPa 0,0 l/m 0 min 0 min 1,7 UV-I 357 W/m 14,6 km/h (3 Bft)
28.06.2014 11:06 18,3 C 18,3 C 78 % 1011,5 hPa 0,0 l/m 0 min 0 min 1,6 UV-I 346 W/m 12,6 km/h (3 Bft)
28.06.2014 11:08 18,3 C 17,8 C 79 % 1011,5 hPa 0,0 l/m 0 min 0 min 1,3 UV-I 283 W/m 12,6 km/h (3 Bft)
28.06.2014 11:10 18,3 C 17,8 C 81 % 1011,6 hPa 0,0 l/m 0 min 0 min 1,1 UV-I 251 W/m 14,6 km/h (3 Bft)
28.06.2014 11:12 18,3 C 17,8 C 80 % 1011,5 hPa 0,0 l/m 0 min 0 min 0,9 UV-I 241 W/m 12,6 km/h (3 Bft)
28.06.2014 11:14 18,2 C 17,8 C 81 % 1011,5 hPa 0,0 l/m 0 min 0 min 1,0 UV-I 269 W/m 12,6 km/h (3 Bft)
28.06.2014 11:16 18,2 C 17,8 C 81 % 1011,5 hPa 0,0 l/m 0 min 0 min 1,3 UV-I 330 W/m 10,5 km/h (2 Bft)
28.06.2014 11:18 18,2 C 17,8 C 81 % 1011,5 hPa 0,0 l/m 0 min 0 min 1,2 UV-I 278 W/m 8,4 km/h (2 Bft)
28.06.2014 11:20 18,1 C 17,8 C 82 % 1011,5 hPa 0,0 l/m 0 min 0 min 1,1 UV-I 255 W/m 2,1 km/h (1 Bft)
28.06.2014 11:22 18,2 C 17,8 C 83 % 1011,5 hPa 0,0 l/m 0 min 0 min 1,0 UV-I 237 W/m 12,6 km/h (3 Bft)
28.06.2014 11:24 18,1 C 17,8 C 81 % 1011,5 hPa 0,0 l/m 0 min 0 min 1,0 UV-I 229 W/m 10,5 km/h (2 Bft)
28.06.2014 11:26 18,1 C 17,8 C 82 % 1011,4 hPa 0,0 l/m 0 min 0 min 1,0 UV-I 239 W/m 8,4 km/h (2 Bft)
28.06.2014 11:28 18,1 C 17,8 C 82 % 1011,4 hPa 0,0 l/m 0 min 0 min 1,1 UV-I 246 W/m 8,4 km/h (2 Bft)
28.06.2014 11:30 18,1 C 17,8 C 82 % 1011,4 hPa 0,0 l/m 0 min 0 min 1,1 UV-I 248 W/m 10,5 km/h (2 Bft)
28.06.2014 11:32 18,1 C 17,8 C 82 % 1011,4 hPa 0,0 l/m 0 min 0 min 1,2 UV-I 251 W/m 8,4 km/h (2 Bft)
28.06.2014 11:34 18,2 C 17,8 C 82 % 1011,3 hPa 0,0 l/m 0 min 0 min 1,2 UV-I 260 W/m 6,3 km/h (2 Bft)
28.06.2014 11:36 18,1 C 17,8 C 81 % 1011,3 hPa 0,0 l/m 0 min 0 min 1,2 UV-I 260 W/m 10,5 km/h (2 Bft)
28.06.2014 11:38 18,1 C 17,8 C 82 % 1011,3 hPa 0,0 l/m 0 min 0 min 1,1 UV-I 241 W/m 12,6 km/h (3 Bft)
28.06.2014 11:40 18,1 C 17,8 C 81 % 1011,2 hPa 0,0 l/m 0 min 0 min 1,0 UV-I 225 W/m 8,4 km/h (2 Bft)
28.06.2014 11:42 18,1 C 17,8 C 82 % 1011,2 hPa 0,0 l/m 0 min 0 min 0,9 UV-I 216 W/m 8,4 km/h (2 Bft)
28.06.2014 11:44 18,0 C 17,8 C 81 % 1011,1 hPa 0,0 l/m 0 min 0 min 1,1 UV-I 237 W/m 10,5 km/h (2 Bft)
28.06.2014 11:46 18,0 C 17,8 C 82 % 1011,2 hPa 0,0 l/m 0 min 0 min 1,4 UV-I 292 W/m 8,4 km/h (2 Bft)
28.06.2014 11:48 18,1 C 17,8 C 81 % 1011,2 hPa 0,0 l/m 0 min 0 min 1,9 UV-I 367 W/m 6,3 km/h (2 Bft)
28.06.2014 11:50 18,2 C 18,3 C 81 % 1011,2 hPa 0,0 l/m 0 min 0 min 1,8 UV-I 374 W/m 6,3 km/h (2 Bft)
28.06.2014 11:52 18,3 C 18,3 C 81 % 1011,1 hPa 0,0 l/m 0 min 0 min 1,7 UV-I 338 W/m 0,0 km/h (0 Bft)
28.06.2014 11:54 18,4 C 18,3 C 81 % 1011,1 hPa 0,0 l/m 0 min 0 min 1,7 UV-I 353 W/m 0,0 km/h (0 Bft)
28.06.2014 11:56 18,4 C 18,3 C 80 % 1011,1 hPa 0,0 l/m 0 min 0 min 2,2 UV-I 418 W/m 2,1 km/h (1 Bft)
28.06.2014 11:58 18,6 C 18,9 C 83 % 1011,1 hPa 0,0 l/m 2 min 0 min 2,4 UV-I 506 W/m 8,4 km/h (2 Bft)
28.06.2014 12:00 18,8 C 19,4 C 81 % 1011,1 hPa 0,0 l/m 2 min 0 min 2,6 UV-I 548 W/m 8,4 km/h (2 Bft)
28.06.2014 12:02 18,8 C 19,4 C 79 % 1011,1 hPa 0,0 l/m 0 min 0 min 2,3 UV-I 443 W/m 8,4 km/h (2 Bft)
28.06.2014 12:06 18,9 C 19,4 C 81 % 1011,1 hPa 0,0 l/m 0 min 0 min 2,1 UV-I 380 W/m 8,4 km/h (2 Bft)
28.06.2014 12:08 19,0 C 19,4 C 81 % 1011,1 hPa 0,0 l/m 0 min 0 min 2,0 UV-I 362 W/m 4,2 km/h (1 Bft)
28.06.2014 12:10 19,1 C 19,4 C 80 % 1011,1 hPa 0,0 l/m 0 min 0 min 2,0 UV-I 348 W/m 6,3 km/h (2 Bft)
28.06.2014 12:12 19,3 C 19,4 C 81 % 1011,1 hPa 0,0 l/m 0 min 0 min 2,1 UV-I 366 W/m 10,5 km/h (2 Bft)
28.06.2014 12:14 19,2 C 19,4 C 80 % 1011,1 hPa 0,0 l/m 0 min 0 min 2,1 UV-I 364 W/m 10,5 km/h (2 Bft)
28.06.2014 12:16 19,1 C 19,4 C 78 % 1011,2 hPa 0,0 l/m 0 min 0 min 1,9 UV-I 334 W/m 8,4 km/h (2 Bft)
28.06.2014 12:18 19,0 C 18,9 C 78 % 1011,1 hPa 0,0 l/m 0 min 0 min 1,7 UV-I 309 W/m 4,2 km/h (1 Bft)
28.06.2014 12:20 18,8 C 18,9 C 78 % 1011,1 hPa 0,0 l/m 0 min 0 min 1,7 UV-I 304 W/m 0,0 km/h (0 Bft)
28.06.2014 12:22 18,7 C 18,9 C 78 % 1011,0 hPa 0,0 l/m 0 min 0 min 1,7 UV-I 304 W/m 8,4 km/h (2 Bft)
28.06.2014 12:24 18,7 C 18,9 C 79 % 1011,0 hPa 0,0 l/m 0 min 0 min 1,9 UV-I 339 W/m 10,5 km/h (2 Bft)
28.06.2014 12:26 18,7 C 18,9 C 79 % 1010,9 hPa 0,0 l/m 0 min 0 min 2,2 UV-I 369 W/m 2,1 km/h (1 Bft)
28.06.2014 12:28 18,7 C 18,9 C 81 % 1010,9 hPa 0,0 l/m 0 min 0 min 2,2 UV-I 380 W/m 0,0 km/h (0 Bft)
28.06.2014 12:30 18,9 C 19,4 C 82 % 1010,9 hPa 0,0 l/m 0 min 0 min 2,2 UV-I 362 W/m 6,3 km/h (2 Bft)
28.06.2014 12:32 18,9 C 19,4 C 81 % 1010,8 hPa 0,0 l/m 0 min 0 min 2,2 UV-I 367 W/m 10,5 km/h (2 Bft)
28.06.2014 12:34 18,9 C 18,9 C 79 % 1010,9 hPa 0,0 l/m 0 min 0 min 2,1 UV-I 357 W/m 10,5 km/h (2 Bft)
28.06.2014 12:36 19,0 C 18,9 C 79 % 1010,9 hPa 0,0 l/m 0 min 0 min 2,1 UV-I 352 W/m 12,6 km/h (3 Bft)
28.06.2014 12:38 18,9 C 18,9 C 77 % 1010,8 hPa 0,0 l/m 0 min 0 min 2,1 UV-I 362 W/m 12,6 km/h (3 Bft)
28.06.2014 12:40 19,0 C 19,4 C 78 % 1010,8 hPa 0,0 l/m 0 min 0 min 2,0 UV-I 352 W/m 8,4 km/h (2 Bft)
28.06.2014 12:42 18,9 C 19,4 C 77 % 1010,9 hPa 0,0 l/m 0 min 0 min 1,7 UV-I 311 W/m 0,0 km/h (0 Bft)
28.06.2014 12:44 18,9 C 19,4 C 78 % 1010,8 hPa 0,0 l/m 0 min 0 min 1,6 UV-I 294 W/m 2,1 km/h (1 Bft)
28.06.2014 12:46 19,0 C 19,4 C 80 % 1010,9 hPa 0,0 l/m 0 min 0 min 1,5 UV-I 272 W/m 6,3 km/h (2 Bft)
28.06.2014 12:48 18,9 C 18,9 C 79 % 1010,8 hPa 0,0 l/m 0 min 0 min 1,3 UV-I 250 W/m 6,3 km/h (2 Bft)
28.06.2014 12:50 18,9 C 18,9 C 77 % 1010,9 hPa 0,0 l/m 0 min 0 min 1,2 UV-I 234 W/m 12,6 km/h (3 Bft)
28.06.2014 12:52 18,9 C 18,9 C 80 % 1010,8 hPa 0,0 l/m 0 min 0 min 1,0 UV-I 213 W/m 10,5 km/h (2 Bft)
28.06.2014 12:54 18,8 C 18,3 C 78 % 1010,9 hPa 0,0 l/m 0 min 0 min 0,7 UV-I 181 W/m 6,3 km/h (2 Bft)
28.06.2014 12:56 18,8 C 18,3 C 77 % 1010,9 hPa 0,0 l/m 0 min 0 min 0,6 UV-I 172 W/m 6,3 km/h (2 Bft)
28.06.2014 12:58 18,7 C 18,3 C 79 % 1010,9 hPa 0,0 l/m 0 min 0 min 0,6 UV-I 172 W/m 10,5 km/h (2 Bft)
28.06.2014 13:00 18,6 C 17,8 C 78 % 1010,9 hPa 0,0 l/m 0 min 0 min 0,6 UV-I 163 W/m 6,3 km/h (2 Bft)
28.06.2014 13:02 18,6 C 17,8 C 79 % 1010,9 hPa 0,0 l/m 0 min 0 min 0,6 UV-I 155 W/m 0,0 km/h (0 Bft)
28.06.2014 13:04 18,6 C 17,8 C 78 % 1010,9 hPa 0,0 l/m 0 min 0 min 0,6 UV-I 155 W/m 10,5 km/h (2 Bft)
28.06.2014 13:06 18,5 C 17,8 C 78 % 1010,9 hPa 0,0 l/m 0 min 0 min 0,5 UV-I 148 W/m 6,3 km/h (2 Bft)
28.06.2014 13:08 18,5 C 17,8 C 79 % 1010,9 hPa 0,0 l/m 0 min 0 min 0,5 UV-I 148 W/m 8,4 km/h (2 Bft)
28.06.2014 13:10 18,5 C 17,8 C 80 % 1010,9 hPa 0,0 l/m 0 min 0 min 0,5 UV-I 148 W/m 8,4 km/h (2 Bft)
28.06.2014 13:12 18,4 C 17,8 C 79 % 1010,8 hPa 0,0 l/m 0 min 2 min 0,0 UV-I 132 W/m 8,4 km/h (2 Bft)
28.06.2014 13:14 18,3 C 17,2 C 79 % 1010,9 hPa 0,0 l/m 0 min 0 min 0,0 UV-I 128 W/m 8,4 km/h (2 Bft)
28.06.2014 13:16 18,3 C 17,2 C 77 % 1010,9 hPa 0,0 l/m 0 min 0 min 0,0 UV-I 121 W/m 8,4 km/h (2 Bft)
28.06.2014 13:18 18,3 C 17,2 C 77 % 1010,8 hPa 0,0 l/m 0 min 0 min 0,0 UV-I 104 W/m 6,3 km/h (2 Bft)
28.06.2014 13:20 18,2 C 17,2 C 78 % 1010,8 hPa 0,0 l/m 0 min 2 min 0,0 UV-I 98 W/m 6,3 km/h (2 Bft)
28.06.2014 13:22 18,2 C 17,2 C 78 % 1010,8 hPa 0,0 l/m 0 min 0 min 0,0 UV-I 100 W/m 6,3 km/h (2 Bft)
28.06.2014 13:24 18,2 C 16,7 C 80 % 1010,8 hPa 0,0 l/m 0 min 2 min 0,0 UV-I 102 W/m 6,3 km/h (2 Bft)
28.06.2014 13:26 18,1 C 16,7 C 81 % 1010,8 hPa 0,0 l/m 0 min 2 min 0,0 UV-I 104 W/m 2,1 km/h (1 Bft)
28.06.2014 13:28 18,1 C 16,7 C 81 % 1010,8 hPa 0,0 l/m 0 min 2 min 0,0 UV-I 109 W/m 0,0 km/h (0 Bft)
28.06.2014 13:30 17,9 C 16,1 C 82 % 1010,8 hPa 0,2 l/m 0 min 2 min 0,0 UV-I 113 W/m 0,0 km/h (0 Bft)
28.06.2014 13:32 17,8 C 15,6 C 84 % 1010,8 hPa 0,0 l/m 0 min 2 min 0,0 UV-I 114 W/m 4,2 km/h (1 Bft)
28.06.2014 13:34 17,7 C 15,6 C 84 % 1010,8 hPa 0,0 l/m 0 min 2 min 0,0 UV-I 118 W/m 10,5 km/h (2 Bft)
28.06.2014 13:36 17,6 C 15,0 C 83 % 1010,8 hPa 0,0 l/m 0 min 2 min 0,0 UV-I 120 W/m 6,3 km/h (2 Bft)
28.06.2014 13:38 17,5 C 15,0 C 85 % 1010,8 hPa 0,0 l/m 0 min 2 min 0,0 UV-I 121 W/m 6,3 km/h (2 Bft)
28.06.2014 13:40 17,3 C 15,0 C 85 % 1010,9 hPa 0,0 l/m 0 min 2 min 0,0 UV-I 121 W/m 8,4 km/h (2 Bft)
28.06.2014 13:42 17,3 C 15,0 C 86 % 1010,9 hPa 0,0 l/m 0 min 2 min 0,0 UV-I 121 W/m 8,4 km/h (2 Bft)
28.06.2014 13:44 17,2 C 15,0 C 85 % 1010,9 hPa 0,0 l/m 0 min 2 min 0,0 UV-I 111 W/m 8,4 km/h (2 Bft)
28.06.2014 13:46 17,1 C 14,4 C 86 % 1010,9 hPa 0,2 l/m 0 min 2 min 0,0 UV-I 102 W/m 8,4 km/h (2 Bft)
28.06.2014 13:48 16,9 C 14,4 C 85 % 1010,9 hPa 0,0 l/m 0 min 2 min 0,0 UV-I 104 W/m 0,0 km/h (0 Bft)
28.06.2014 13:50 16,8 C 14,4 C 86 % 1010,9 hPa 0,0 l/m 0 min 2 min 0,0 UV-I 102 W/m 0,0 km/h (0 Bft)
28.06.2014 13:52 16,8 C 14,4 C 87 % 1010,9 hPa 0,2 l/m 0 min 2 min 0,0 UV-I 95 W/m 0,0 km/h (0 Bft)
28.06.2014 13:54 16,7 C 14,4 C 88 % 1010,9 hPa 0,0 l/m 0 min 2 min 0,0 UV-I 97 W/m 0,0 km/h (0 Bft)
28.06.2014 13:56 16,7 C 14,4 C 88 % 1010,8 hPa 0,0 l/m 0 min 2 min 0,0 UV-I 100 W/m 0,0 km/h (0 Bft)
28.06.2014 13:58 16,5 C 14,4 C 88 % 1010,7 hPa 0,2 l/m 0 min 2 min 0,0 UV-I 118 W/m 0,0 km/h (0 Bft)
28.06.2014 14:00 16,4 C 14,4 C 89 % 1010,7 hPa 0,2 l/m 0 min 2 min 0,0 UV-I 125 W/m 0,0 km/h (0 Bft)
28.06.2014 14:02 16,4 C 15,0 C 88 % 1010,8 hPa 0,0 l/m 0 min 2 min 0,0 UV-I 130 W/m 0,0 km/h (0 Bft)
28.06.2014 14:04 16,3 C 15,0 C 88 % 1010,8 hPa 0,0 l/m 0 min 2 min 0,5 UV-I 137 W/m 0,0 km/h (0 Bft)
28.06.2014 14:06 16,2 C 14,4 C 88 % 1010,8 hPa 0,0 l/m 0 min 2 min 0,5 UV-I 141 W/m 0,0 km/h (0 Bft)
28.06.2014 14:08 16,2 C 15,0 C 89 % 1010,8 hPa 0,0 l/m 0 min 2 min 0,5 UV-I 142 W/m 0,0 km/h (0 Bft)
28.06.2014 14:10 16,4 C 15,0 C 90 % 1010,7 hPa 0,0 l/m 0 min 2 min 0,5 UV-I 142 W/m 0,0 km/h (0 Bft)
28.06.2014 14:12 16,4 C 15,0 C 91 % 1010,7 hPa 0,0 l/m 0 min 2 min 0,6 UV-I 144 W/m 0,0 km/h (0 Bft)
28.06.2014 14:14 16,3 C 15,0 C 91 % 1010,6 hPa 0,0 l/m 0 min 2 min 0,6 UV-I 148 W/m 0,0 km/h (0 Bft)
28.06.2014 14:16 16,2 C 14,4 C 90 % 1010,6 hPa 0,2 l/m 0 min 2 min 0,6 UV-I 151 W/m 0,0 km/h (0 Bft)
28.06.2014 14:18 16,3 C 15,0 C 91 % 1010,7 hPa 0,0 l/m 0 min 2 min 0,6 UV-I 148 W/m 0,0 km/h (0 Bft)
28.06.2014 14:20 16,2 C 15,0 C 91 % 1010,6 hPa 0,0 l/m 0 min 2 min 0,5 UV-I 146 W/m 2,1 km/h (1 Bft)
28.06.2014 14:22 16,1 C 15,0 C 91 % 1010,5 hPa 0,0 l/m 0 min 2 min 0,6 UV-I 148 W/m 0,0 km/h (0 Bft)
28.06.2014 14:24 16,1 C 15,0 C 91 % 1010,5 hPa 0,2 l/m 0 min 2 min 0,6 UV-I 155 W/m 0,0 km/h (0 Bft)
28.06.2014 14:26 16,2 C 15,0 C 92 % 1010,4 hPa 0,0 l/m 0 min 2 min 0,7 UV-I 160 W/m 0,0 km/h (0 Bft)
28.06.2014 14:28 16,3 C 15,0 C 92 % 1010,4 hPa 0,0 l/m 0 min 2 min 0,7 UV-I 169 W/m 0,0 km/h (0 Bft)
28.06.2014 14:30 16,3 C 15,0 C 92 % 1010,4 hPa 0,0 l/m 0 min 2 min 0,8 UV-I 171 W/m 0,0 km/h (0 Bft)
28.06.2014 14:32 16,3 C 15,0 C 92 % 1010,4 hPa 0,0 l/m 0 min 2 min 0,8 UV-I 169 W/m 0,0 km/h (0 Bft)
28.06.2014 14:34 16,3 C 15,0 C 91 % 1010,4 hPa 0,0 l/m 0 min 2 min 0,8 UV-I 174 W/m 0,0 km/h (0 Bft)
28.06.2014 14:36 16,4 C 15,0 C 92 % 1010,4 hPa 0,0 l/m 0 min 2 min 0,8 UV-I 178 W/m 0,0 km/h (0 Bft)
28.06.2014 14:38 16,3 C 15,0 C 91 % 1010,4 hPa 0,2 l/m 0 min 2 min 0,8 UV-I 172 W/m 0,0 km/h (0 Bft)
28.06.2014 14:40 16,2 C 15,0 C 90 % 1010,4 hPa 0,0 l/m 0 min 2 min 0,7 UV-I 160 W/m 0,0 km/h (0 Bft)
28.06.2014 14:42 16,3 C 15,0 C 91 % 1010,3 hPa 0,0 l/m 0 min 2 min 0,6 UV-I 151 W/m 0,0 km/h (0 Bft)
28.06.2014 14:44 16,3 C 15,0 C 91 % 1010,3 hPa 0,0 l/m 0 min 2 min 0,5 UV-I 135 W/m 0,0 km/h (0 Bft)
28.06.2014 14:46 16,3 C 15,0 C 91 % 1010,3 hPa 0,0 l/m 0 min 2 min 0,0 UV-I 128 W/m 0,0 km/h (0 Bft)
28.06.2014 14:48 16,2 C 15,0 C 92 % 1010,3 hPa 0,0 l/m 0 min 2 min 0,0 UV-I 121 W/m 0,0 km/h (0 Bft)
28.06.2014 14:50 16,0 C 14,4 C 91 % 1010,3 hPa 0,0 l/m 0 min 2 min 0,0 UV-I 128 W/m 0,0 km/h (0 Bft)
28.06.2014 14:52 16,1 C 15,0 C 91 % 1010,2 hPa 0,0 l/m 0 min 2 min 0,0 UV-I 132 W/m 0,0 km/h (0 Bft)
28.06.2014 14:54 16,1 C 15,0 C 92 % 1010,3 hPa 0,0 l/m 0 min 2 min 0,0 UV-I 134 W/m 0,0 km/h (0 Bft)
28.06.2014 14:56 16,2 C 15,0 C 92 % 1010,2 hPa 0,0 l/m 0 min 2 min 0,0 UV-I 128 W/m 0,0 km/h (0 Bft)
28.06.2014 14:58 16,2 C 15,0 C 92 % 1010,2 hPa 0,0 l/m 0 min 2 min 0,0 UV-I 125 W/m 0,0 km/h (0 Bft)
28.06.2014 15:00 16,3 C 15,0 C 93 % 1010,3 hPa 0,0 l/m 0 min 2 min 0,0 UV-I 130 W/m 0,0 km/h (0 Bft)
28.06.2014 15:02 16,3 C 15,0 C 93 % 1010,3 hPa 0,0 l/m 0 min 2 min 0,0 UV-I 141 W/m 0,0 km/h (0 Bft)
28.06.2014 15:04 16,3 C 15,0 C 93 % 1010,2 hPa 0,0 l/m 0 min 2 min 0,5 UV-I 149 W/m 0,0 km/h (0 Bft)
28.06.2014 15:06 16,2 C 15,0 C 93 % 1010,2 hPa 0,0 l/m 0 min 2 min 0,6 UV-I 160 W/m 2,1 km/h (1 Bft)
28.06.2014 15:08 16,3 C 15,0 C 93 % 1010,2 hPa 0,0 l/m 0 min 2 min 0,7 UV-I 163 W/m 0,0 km/h (0 Bft)
28.06.2014 15:10 16,3 C 15,0 C 93 % 1010,2 hPa 0,0 l/m 0 min 2 min 0,6 UV-I 160 W/m 0,0 km/h (0 Bft)
28.06.2014 15:12 16,3 C 15,0 C 93 % 1010,2 hPa 0,2 l/m 0 min 2 min 0,6 UV-I 160 W/m 0,0 km/h (0 Bft)
28.06.2014 15:14 16,3 C 15,0 C 93 % 1010,2 hPa 0,0 l/m 0 min 2 min 0,6 UV-I 163 W/m 0,0 km/h (0 Bft)
28.06.2014 15:16 16,2 C 15,0 C 93 % 1010,2 hPa 0,0 l/m 0 min 2 min 0,6 UV-I 153 W/m 0,0 km/h (0 Bft)
28.06.2014 15:18 16,2 C 15,0 C 93 % 1010,2 hPa 0,0 l/m 0 min 2 min 0,6 UV-I 151 W/m 0,0 km/h (0 Bft)
28.06.2014 15:20 16,3 C 15,0 C 93 % 1010,2 hPa 0,0 l/m 0 min 2 min 0,6 UV-I 162 W/m 0,0 km/h (0 Bft)
28.06.2014 15:22 16,4 C 15,0 C 93 % 1010,2 hPa 0,0 l/m 0 min 2 min 0,7 UV-I 169 W/m 0,0 km/h (0 Bft)
28.06.2014 15:24 16,4 C 15,0 C 93 % 1010,1 hPa 0,0 l/m 0 min 2 min 0,7 UV-I 172 W/m 0,0 km/h (0 Bft)
28.06.2014 15:26 16,2 C 15,0 C 93 % 1010,1 hPa 0,0 l/m 0 min 2 min 0,7 UV-I 171 W/m 0,0 km/h (0 Bft)
28.06.2014 15:28 16,3 C 15,0 C 93 % 1010,1 hPa 0,0 l/m 0 min 2 min 0,6 UV-I 163 W/m 0,0 km/h (0 Bft)
28.06.2014 15:30 16,3 C 15,0 C 93 % 1010,1 hPa 0,0 l/m 0 min 2 min 0,6 UV-I 158 W/m 0,0 km/h (0 Bft)
28.06.2014 15:32 16,2 C 15,0 C 92 % 1010,0 hPa 0,0 l/m 0 min 2 min 0,6 UV-I 160 W/m 0,0 km/h (0 Bft)
28.06.2014 15:34 16,2 C 15,0 C 92 % 1010,0 hPa 0,0 l/m 0 min 2 min 0,6 UV-I 167 W/m 0,0 km/h (0 Bft)
28.06.2014 15:36 16,2 C 15,0 C 92 % 1010,0 hPa 0,0 l/m 0 min 2 min 0,6 UV-I 162 W/m 2,1 km/h (1 Bft)
28.06.2014 15:38 16,3 C 15,0 C 92 % 1010,0 hPa 0,0 l/m 0 min 2 min 0,5 UV-I 149 W/m 0,0 km/h (0 Bft)
28.06.2014 15:40 16,3 C 15,0 C 93 % 1010,0 hPa 0,0 l/m 0 min 2 min 0,5 UV-I 149 W/m 0,0 km/h (0 Bft)
28.06.2014 15:42 16,3 C 15,0 C 93 % 1010,0 hPa 0,0 l/m 0 min 2 min 0,5 UV-I 158 W/m 0,0 km/h (0 Bft)
28.06.2014 15:44 16,2 C 15,0 C 93 % 1010,0 hPa 0,2 l/m 0 min 2 min 0,6 UV-I 160 W/m 0,0 km/h (0 Bft)
28.06.2014 15:46 16,2 C 15,0 C 93 % 1010,0 hPa 0,0 l/m 0 min 2 min 0,5 UV-I 155 W/m 0,0 km/h (0 Bft)
28.06.2014 15:48 16,1 C 15,0 C 93 % 1010,0 hPa 0,0 l/m 0 min 2 min 0,5 UV-I 148 W/m 0,0 km/h (0 Bft)
28.06.2014 15:50 16,1 C 15,0 C 93 % 1010,0 hPa 0,0 l/m 0 min 2 min 0,0 UV-I 139 W/m 0,0 km/h (0 Bft)
28.06.2014 15:52 16,1 C 15,0 C 93 % 1010,1 hPa 0,0 l/m 0 min 2 min 0,0 UV-I 144 W/m 0,0 km/h (0 Bft)
28.06.2014 15:54 16,1 C 15,0 C 93 % 1010,0 hPa 0,0 l/m 0 min 2 min 0,0 UV-I 146 W/m 2,1 km/h (1 Bft)
28.06.2014 15:56 16,2 C 15,0 C 94 % 1010,0 hPa 0,2 l/m 0 min 2 min 0,5 UV-I 151 W/m 0,0 km/h (0 Bft)
28.06.2014 15:58 16,2 C 15,0 C 94 % 1010,0 hPa 0,0 l/m 0 min 2 min 0,0 UV-I 148 W/m 0,0 km/h (0 Bft)
28.06.2014 16:00 16,2 C 15,0 C 94 % 1009,9 hPa 0,0 l/m 0 min 2 min 0,0 UV-I 144 W/m 0,0 km/h (0 Bft)
28.06.2014 16:02 16,2 C 15,0 C 94 % 1009,9 hPa 0,0 l/m 0 min 2 min 0,0 UV-I 151 W/m 0,0 km/h (0 Bft)
28.06.2014 16:04 16,1 C 15,0 C 94 % 1009,9 hPa 0,0 l/m 0 min 2 min 0,5 UV-I 163 W/m 0,0 km/h (0 Bft)
28.06.2014 16:06 16,1 C 15,0 C 94 % 1009,9 hPa 0,0 l/m 0 min 2 min 0,5 UV-I 160 W/m 0,0 km/h (0 Bft)
28.06.2014 16:08 16,1 C 15,0 C 94 % 1009,9 hPa 0,0 l/m 0 min 2 min 0,5 UV-I 151 W/m 0,0 km/h (0 Bft)
28.06.2014 16:10 16,2 C 15,0 C 94 % 1009,8 hPa 0,0 l/m 0 min 2 min 0,0 UV-I 149 W/m 0,0 km/h (0 Bft)
28.06.2014 16:12 16,2 C 15,0 C 94 % 1009,9 hPa 0,2 l/m 0 min 2 min 0,5 UV-I 155 W/m 0,0 km/h (0 Bft)
28.06.2014 16:14 16,1 C 15,0 C 94 % 1009,8 hPa 0,0 l/m 0 min 2 min 0,5 UV-I 158 W/m 0,0 km/h (0 Bft)
28.06.2014 16:16 15,9 C 15,0 C 94 % 1009,8 hPa 0,0 l/m 0 min 2 min 0,5 UV-I 151 W/m 0,0 km/h (0 Bft)
28.06.2014 16:18 16,0 C 15,0 C 94 % 1009,9 hPa 0,0 l/m 0 min 2 min 0,0 UV-I 116 W/m 0,0 km/h (0 Bft)
28.06.2014 16:20 16,0 C 15,0 C 94 % 1009,8 hPa 0,0 l/m 0 min 2 min 0,0 UV-I 118 W/m 0,0 km/h (0 Bft)
28.06.2014 16:22 15,9 C 15,0 C 94 % 1009,7 hPa 0,0 l/m 0 min 2 min 0,0 UV-I 125 W/m 0,0 km/h (0 Bft)
28.06.2014 16:24 15,8 C 14,4 C 93 % 1009,7 hPa 0,0 l/m 0 min 2 min 0,0 UV-I 151 W/m 0,0 km/h (0 Bft)
28.06.2014 16:26 15,9 C 15,0 C 94 % 1009,7 hPa 0,0 l/m 0 min 2 min 0,0 UV-I 155 W/m 2,1 km/h (1 Bft)
28.06.2014 16:28 15,9 C 15,0 C 94 % 1009,6 hPa 0,0 l/m 0 min 2 min 0,5 UV-I 158 W/m 0,0 km/h (0 Bft)
28.06.2014 16:30 15,9 C 14,4 C 94 % 1009,6 hPa 0,0 l/m 0 min 2 min 0,5 UV-I 162 W/m 0,0 km/h (0 Bft)
28.06.2014 16:32 15,9 C 14,4 C 93 % 1009,6 hPa 0,2 l/m 0 min 2 min 0,5 UV-I 171 W/m 2,1 km/h (1 Bft)
28.06.2014 16:34 16,1 C 15,0 C 94 % 1009,6 hPa 0,0 l/m 0 min 2 min 0,6 UV-I 181 W/m 0,0 km/h (0 Bft)
28.06.2014 16:36 16,0 C 15,0 C 94 % 1009,6 hPa 0,0 l/m 0 min 2 min 0,6 UV-I 171 W/m 0,0 km/h (0 Bft)
28.06.2014 16:38 15,9 C 15,0 C 94 % 1009,6 hPa 0,0 l/m 0 min 2 min 0,0 UV-I 155 W/m 0,0 km/h (0 Bft)
28.06.2014 16:40 16,1 C 15,0 C 94 % 1009,6 hPa 0,0 l/m 0 min 2 min 0,0 UV-I 149 W/m 0,0 km/h (0 Bft)
28.06.2014 16:42 15,9 C 15,0 C 94 % 1009,6 hPa 0,0 l/m 0 min 2 min 0,0 UV-I 148 W/m 0,0 km/h (0 Bft)
28.06.2014 16:44 15,9 C 15,0 C 94 % 1009,5 hPa 0,0 l/m 0 min 2 min 0,0 UV-I 142 W/m 0,0 km/h (0 Bft)
28.06.2014 16:46 16,1 C 15,0 C 94 % 1009,5 hPa 0,0 l/m 0 min 2 min 0,0 UV-I 137 W/m 0,0 km/h (0 Bft)
28.06.2014 16:48 16,0 C 14,4 C 94 % 1009,4 hPa 0,0 l/m 0 min 2 min 0,0 UV-I 127 W/m 0,0 km/h (0 Bft)
28.06.2014 16:50 15,9 C 14,4 C 94 % 1009,4 hPa 0,0 l/m 0 min 2 min 0,0 UV-I 118 W/m 0,0 km/h (0 Bft)
28.06.2014 16:52 15,9 C 14,4 C 94 % 1009,4 hPa 0,0 l/m 0 min 2 min 0,0 UV-I 109 W/m 0,0 km/h (0 Bft)
28.06.2014 16:54 15,8 C 14,4 C 94 % 1009,4 hPa 0,0 l/m 0 min 2 min 0,0 UV-I 120 W/m 0,0 km/h (0 Bft)
28.06.2014 16:56 15,9 C 14,4 C 94 % 1009,3 hPa 0,0 l/m 0 min 2 min 0,0 UV-I 130 W/m 0,0 km/h (0 Bft)
28.06.2014 16:58 15,9 C 15,0 C 94 % 1009,3 hPa 0,0 l/m 0 min 2 min 0,0 UV-I 134 W/m 0,0 km/h (0 Bft)
28.06.2014 17:00 16,1 C 15,0 C 94 % 1009,3 hPa 0,0 l/m 0 min 2 min 0,0 UV-I 123 W/m 0,0 km/h (0 Bft)
28.06.2014 17:02 16,2 C 15,0 C 94 % 1009,3 hPa 0,0 l/m 0 min 2 min 0,0 UV-I 125 W/m 4,2 km/h (1 Bft)
28.06.2014 17:04 16,1 C 15,0 C 94 % 1009,3 hPa 0,0 l/m 0 min 2 min 0,0 UV-I 130 W/m 4,2 km/h (1 Bft)
28.06.2014 17:06 16,2 C 15,0 C 94 % 1009,4 hPa 0,0 l/m 0 min 2 min 0,0 UV-I 120 W/m 6,3 km/h (2 Bft)
28.06.2014 17:08 16,2 C 15,0 C 95 % 1009,4 hPa 0,0 l/m 0 min 2 min 0,0 UV-I 107 W/m 6,3 km/h (2 Bft)
28.06.2014 17:10 16,2 C 15,0 C 95 % 1009,3 hPa 0,0 l/m 0 min 2 min 0,0 UV-I 98 W/m 4,2 km/h (1 Bft)
28.06.2014 17:12 16,2 C 15,0 C 95 % 1009,4 hPa 0,0 l/m 0 min 2 min 0,0 UV-I 93 W/m 0,0 km/h (0 Bft)
28.06.2014 17:14 16,2 C 15,0 C 95 % 1009,4 hPa 0,2 l/m 0 min 2 min 0,0 UV-I 95 W/m 0,0 km/h (0 Bft)
28.06.2014 17:16 16,2 C 15,0 C 95 % 1009,3 hPa 0,0 l/m 0 min 2 min 0,0 UV-I 100 W/m 2,1 km/h (1 Bft)
28.06.2014 17:18 16,2 C 15,0 C 95 % 1009,3 hPa 0,0 l/m 0 min 2 min 0,0 UV-I 109 W/m 0,0 km/h (0 Bft)
28.06.2014 17:20 16,2 C 15,0 C 96 % 1009,3 hPa 0,0 l/m 0 min 2 min 0,0 UV-I 114 W/m 0,0 km/h (0 Bft)
28.06.2014 17:22 16,2 C 15,0 C 96 % 1009,3 hPa 0,0 l/m 0 min 2 min 0,0 UV-I 121 W/m 0,0 km/h (0 Bft)
28.06.2014 17:24 16,3 C 15,0 C 96 % 1009,3 hPa 0,0 l/m 0 min 2 min 0,0 UV-I 121 W/m 0,0 km/h (0 Bft)
28.06.2014 17:26 16,2 C 15,0 C 96 % 1009,3 hPa 0,0 l/m 0 min 2 min 0,0 UV-I 116 W/m 0,0 km/h (0 Bft)
28.06.2014 17:28 16,2 C 15,0 C 96 % 1009,3 hPa 0,0 l/m 0 min 2 min 0,0 UV-I 109 W/m 0,0 km/h (0 Bft)
28.06.2014 17:30 16,3 C 15,0 C 96 % 1009,3 hPa 0,0 l/m 0 min 2 min 0,0 UV-I 104 W/m 0,0 km/h (0 Bft)
28.06.2014 17:32 16,3 C 15,0 C 96 % 1009,3 hPa 0,0 l/m 0 min 2 min 0,0 UV-I 104 W/m 2,1 km/h (1 Bft)
28.06.2014 17:34 16,3 C 15,0 C 96 % 1009,3 hPa 0,0 l/m 0 min 2 min 0,0 UV-I 113 W/m 0,0 km/h (0 Bft)
28.06.2014 17:36 16,3 C 15,0 C 96 % 1009,3 hPa 0,0 l/m 0 min 2 min 0,0 UV-I 121 W/m 0,0 km/h (0 Bft)
28.06.2014 17:38 16,2 C 15,0 C 96 % 1009,2 hPa 0,0 l/m 0 min 2 min 0,0 UV-I 127 W/m 0,0 km/h (0 Bft)
28.06.2014 17:40 16,2 C 15,0 C 96 % 1009,2 hPa 0,0 l/m 0 min 2 min 0,0 UV-I 123 W/m 0,0 km/h (0 Bft)
28.06.2014 17:42 16,2 C 15,0 C 96 % 1009,2 hPa 0,2 l/m 0 min 2 min 0,0 UV-I 127 W/m 0,0 km/h (0 Bft)
28.06.2014 17:44 16,2 C 15,0 C 96 % 1009,2 hPa 0,0 l/m 0 min 2 min 0,0 UV-I 132 W/m 0,0 km/h (0 Bft)
28.06.2014 17:46 16,3 C 15,6 C 96 % 1009,1 hPa 0,0 l/m 0 min 2 min 0,0 UV-I 134 W/m 0,0 km/h (0 Bft)
28.06.2014 17:48 16,4 C 15,6 C 96 % 1009,1 hPa 0,0 l/m 0 min 2 min 0,0 UV-I 130 W/m 0,0 km/h (0 Bft)
28.06.2014 17:50 16,4 C 15,0 C 96 % 1009,1 hPa 0,0 l/m 0 min 2 min 0,0 UV-I 127 W/m 0,0 km/h (0 Bft)
28.06.2014 17:52 16,3 C 15,0 C 96 % 1009,1 hPa 0,0 l/m 0 min 2 min 0,0 UV-I 125 W/m 0,0 km/h (0 Bft)
28.06.2014 17:54 16,3 C 15,0 C 96 % 1009,1 hPa 0,0 l/m 0 min 2 min 0,0 UV-I 121 W/m 0,0 km/h (0 Bft)
28.06.2014 17:56 16,3 C 15,0 C 96 % 1009,1 hPa 0,0 l/m 0 min 2 min 0,0 UV-I 120 W/m 0,0 km/h (0 Bft)
28.06.2014 17:58 16,3 C 15,6 C 96 % 1009,0 hPa 0,0 l/m 0 min 2 min 0,0 UV-I 125 W/m 0,0 km/h (0 Bft)
28.06.2014 18:00 16,4 C 15,6 C 96 % 1009,0 hPa 0,0 l/m 0 min 2 min 0,0 UV-I 123 W/m 0,0 km/h (0 Bft)
28.06.2014 18:02 16,3 C 15,6 C 96 % 1008,9 hPa 0,0 l/m 0 min 2 min 0,0 UV-I 114 W/m 0,0 km/h (0 Bft)
28.06.2014 18:06 16,4 C 15,6 C 96 % 1008,9 hPa 0,0 l/m 0 min 2 min 0,0 UV-I 97 W/m 8,4 km/h (2 Bft)
28.06.2014 18:08 16,4 C 15,0 C 96 % 1008,9 hPa 0,0 l/m 0 min 2 min 0,0 UV-I 95 W/m 6,3 km/h (2 Bft)
28.06.2014 18:10 16,4 C 15,6 C 96 % 1008,9 hPa 0,0 l/m 0 min 2 min 0,0 UV-I 93 W/m 6,3 km/h (2 Bft)
28.06.2014 18:12 16,5 C 15,6 C 96 % 1008,9 hPa 0,0 l/m 0 min 2 min 0,0 UV-I 95 W/m 2,1 km/h (1 Bft)
28.06.2014 18:14 16,4 C 15,6 C 96 % 1008,9 hPa 0,0 l/m 0 min 2 min 0,0 UV-I 95 W/m 6,3 km/h (2 Bft)
28.06.2014 18:16 16,4 C 15,6 C 96 % 1008,9 hPa 0,0 l/m 0 min 2 min 0,0 UV-I 93 W/m 0,0 km/h (0 Bft)
28.06.2014 18:18 16,3 C 15,0 C 96 % 1008,9 hPa 0,0 l/m 0 min 2 min 0,0 UV-I 90 W/m 4,2 km/h (1 Bft)
28.06.2014 18:20 16,2 C 15,0 C 96 % 1008,9 hPa 0,0 l/m 0 min 2 min 0,0 UV-I 90 W/m 0,0 km/h (0 Bft)
28.06.2014 18:22 16,3 C 15,0 C 95 % 1008,9 hPa 0,0 l/m 0 min 2 min 0,0 UV-I 91 W/m 0,0 km/h (0 Bft)
28.06.2014 18:24 16,2 C 15,0 C 95 % 1008,9 hPa 0,0 l/m 0 min 2 min 0,0 UV-I 90 W/m 6,3 km/h (2 Bft)
28.06.2014 18:26 16,2 C 15,0 C 95 % 1008,9 hPa 0,0 l/m 0 min 2 min 0,0 UV-I 86 W/m 0,0 km/h (0 Bft)
28.06.2014 18:28 16,2 C 15,0 C 95 % 1008,9 hPa 0,0 l/m 0 min 2 min 0,0 UV-I 81 W/m 0,0 km/h (0 Bft)
28.06.2014 18:30 16,2 C 15,0 C 95 % 1009,0 hPa 0,0 l/m 0 min 2 min 0,0 UV-I 81 W/m 0,0 km/h (0 Bft)
28.06.2014 18:32 16,3 C 15,0 C 95 % 1008,9 hPa 0,0 l/m 0 min 2 min 0,0 UV-I 81 W/m 0,0 km/h (0 Bft)
28.06.2014 18:34 16,3 C 15,0 C 95 % 1008,9 hPa 0,0 l/m 0 min 2 min 0,0 UV-I 81 W/m 0,0 km/h (0 Bft)
28.06.2014 18:36 16,2 C 15,0 C 95 % 1009,0 hPa 0,0 l/m 0 min 2 min 0,0 UV-I 81 W/m 0,0 km/h (0 Bft)
28.06.2014 18:38 16,2 C 15,0 C 95 % 1008,9 hPa 0,2 l/m 0 min 2 min 0,0 UV-I 84 W/m 0,0 km/h (0 Bft)
28.06.2014 18:40 16,2 C 15,0 C 95 % 1008,9 hPa 0,0 l/m 0 min 2 min 0,0 UV-I 88 W/m 0,0 km/h (0 Bft)
28.06.2014 18:42 16,3 C 15,0 C 95 % 1008,9 hPa 0,0 l/m 0 min 2 min 0,0 UV-I 86 W/m 0,0 km/h (0 Bft)
28.06.2014 18:44 16,2 C 15,0 C 95 % 1008,9 hPa 0,0 l/m 0 min 2 min 0,0 UV-I 84 W/m 0,0 km/h (0 Bft)
28.06.2014 18:46 16,2 C 15,0 C 95 % 1008,9 hPa 0,0 l/m 0 min 2 min 0,0 UV-I 83 W/m 0,0 km/h (0 Bft)
28.06.2014 18:48 16,1 C 15,0 C 95 % 1008,9 hPa 0,0 l/m 0 min 2 min 0,0 UV-I 81 W/m 0,0 km/h (0 Bft)
28.06.2014 18:50 16,1 C 15,0 C 95 % 1008,8 hPa 0,0 l/m 0 min 2 min 0,0 UV-I 79 W/m 2,1 km/h (1 Bft)
28.06.2014 18:52 16,2 C 15,0 C 95 % 1008,9 hPa 0,0 l/m 0 min 2 min 0,0 UV-I 79 W/m 0,0 km/h (0 Bft)
28.06.2014 18:54 16,1 C 15,0 C 95 % 1008,8 hPa 0,0 l/m 0 min 2 min 0,0 UV-I 77 W/m 0,0 km/h (0 Bft)
28.06.2014 18:56 16,1 C 14,4 C 95 % 1008,8 hPa 0,0 l/m 0 min 2 min 0,0 UV-I 76 W/m 0,0 km/h (0 Bft)
28.06.2014 18:58 16,0 C 15,0 C 95 % 1008,8 hPa 0,0 l/m 0 min 2 min 0,0 UV-I 74 W/m 0,0 km/h (0 Bft)
28.06.2014 19:00 16,0 C 15,0 C 95 % 1008,8 hPa 0,2 l/m 0 min 2 min 0,0 UV-I 72 W/m 0,0 km/h (0 Bft)
28.06.2014 19:02 16,1 C 15,0 C 95 % 1008,8 hPa 0,0 l/m 0 min 2 min 0,0 UV-I 67 W/m 0,0 km/h (0 Bft)
28.06.2014 19:04 16,1 C 15,0 C 95 % 1008,7 hPa 0,0 l/m 0 min 2 min 0,0 UV-I 63 W/m 0,0 km/h (0 Bft)
28.06.2014 19:06 16,2 C 15,0 C 95 % 1008,7 hPa 0,0 l/m 0 min 2 min 0,0 UV-I 62 W/m 0,0 km/h (0 Bft)
28.06.2014 19:08 16,1 C 15,0 C 95 % 1008,7 hPa 0,0 l/m 0 min 2 min 0,0 UV-I 60 W/m 0,0 km/h (0 Bft)
28.06.2014 19:10 16,1 C 15,0 C 95 % 1008,6 hPa 0,0 l/m 0 min 2 min 0,0 UV-I 56 W/m 0,0 km/h (0 Bft)
28.06.2014 19:12 16,1 C 15,0 C 95 % 1008,6 hPa 0,0 l/m 0 min 2 min 0,0 UV-I 56 W/m 0,0 km/h (0 Bft)
28.06.2014 19:14 15,9 C 14,4 C 95 % 1008,5 hPa 0,0 l/m 0 min 2 min 0,0 UV-I 58 W/m 0,0 km/h (0 Bft)
28.06.2014 19:16 15,9 C 15,0 C 95 % 1008,6 hPa 0,0 l/m 0 min 2 min 0,0 UV-I 58 W/m 0,0 km/h (0 Bft)
28.06.2014 19:18 15,9 C 15,0 C 95 % 1008,6 hPa 0,0 l/m 0 min 2 min 0,0 UV-I 58 W/m 0,0 km/h (0 Bft)
28.06.2014 19:20 16,0 C 15,0 C 95 % 1008,5 hPa 0,0 l/m 0 min 2 min 0,0 UV-I 58 W/m 0,0 km/h (0 Bft)
28.06.2014 19:22 16,1 C 15,0 C 95 % 1008,5 hPa 0,0 l/m 0 min 2 min 0,0 UV-I 58 W/m 0,0 km/h (0 Bft)
28.06.2014 19:24 16,0 C 15,0 C 95 % 1008,5 hPa 0,0 l/m 0 min 2 min 0,0 UV-I 56 W/m 0,0 km/h (0 Bft)
28.06.2014 19:26 15,9 C 15,0 C 95 % 1008,5 hPa 0,0 l/m 0 min 2 min 0,0 UV-I 53 W/m 0,0 km/h (0 Bft)
28.06.2014 19:28 16,0 C 15,0 C 95 % 1008,5 hPa 0,0 l/m 0 min 2 min 0,0 UV-I 49 W/m 0,0 km/h (0 Bft)
28.06.2014 19:30 15,9 C 14,4 C 95 % 1008,4 hPa 0,0 l/m 0 min 2 min 0,0 UV-I 46 W/m 0,0 km/h (0 Bft)
28.06.2014 19:32 15,9 C 14,4 C 95 % 1008,4 hPa 0,0 l/m 0 min 2 min 0,0 UV-I 46 W/m 0,0 km/h (0 Bft)
28.06.2014 19:34 16,0 C 14,4 C 95 % 1008,3 hPa 0,0 l/m 0 min 2 min 0,0 UV-I 46 W/m 0,0 km/h (0 Bft)
28.06.2014 19:36 16,1 C 15,0 C 96 % 1008,3 hPa 0,2 l/m 0 min 2 min 0,0 UV-I 49 W/m 0,0 km/h (0 Bft)
28.06.2014 19:38 16,1 C 15,0 C 96 % 1008,3 hPa 0,0 l/m 0 min 2 min 0,0 UV-I 51 W/m 0,0 km/h (0 Bft)
28.06.2014 19:40 16,1 C 15,0 C 96 % 1008,3 hPa 0,0 l/m 0 min 2 min 0,0 UV-I 51 W/m 0,0 km/h (0 Bft)
28.06.2014 19:42 16,2 C 15,0 C 96 % 1008,3 hPa 0,0 l/m 0 min 2 min 0,0 UV-I 49 W/m 0,0 km/h (0 Bft)
28.06.2014 19:44 16,2 C 15,0 C 96 % 1008,3 hPa 0,0 l/m 0 min 2 min 0,0 UV-I 44 W/m 0,0 km/h (0 Bft)
28.06.2014 19:46 16,2 C 15,0 C 96 % 1008,3 hPa 0,0 l/m 0 min 2 min 0,0 UV-I 40 W/m 0,0 km/h (0 Bft)
28.06.2014 19:48 16,2 C 15,0 C 96 % 1008,3 hPa 0,0 l/m 0 min 2 min 0,0 UV-I 37 W/m 0,0 km/h (0 Bft)
28.06.2014 19:50 16,2 C 15,0 C 96 % 1008,3 hPa 0,0 l/m 0 min 2 min 0,0 UV-I 33 W/m 0,0 km/h (0 Bft)
28.06.2014 19:52 16,1 C 15,0 C 96 % 1008,2 hPa 0,0 l/m 0 min 2 min 0,0 UV-I 30 W/m 0,0 km/h (0 Bft)
28.06.2014 19:54 16,1 C 15,0 C 96 % 1008,2 hPa 0,0 l/m 0 min 2 min 0,0 UV-I 30 W/m 0,0 km/h (0 Bft)
28.06.2014 19:56 16,1 C 15,0 C 96 % 1008,2 hPa 0,2 l/m 0 min 2 min 0,0 UV-I 28 W/m 6,3 km/h (2 Bft)
28.06.2014 19:58 16,1 C 15,0 C 96 % 1008,2 hPa 0,0 l/m 0 min 2 min 0,0 UV-I 26 W/m 6,3 km/h (2 Bft)
28.06.2014 20:00 16,1 C 15,0 C 96 % 1008,2 hPa 0,0 l/m 0 min 2 min 0,0 UV-I 23 W/m 8,4 km/h (2 Bft)
28.06.2014 20:02 16,0 C 15,0 C 96 % 1008,2 hPa 0,0 l/m 0 min 2 min 0,0 UV-I 23 W/m 14,6 km/h (3 Bft)
28.06.2014 20:04 15,9 C 14,4 C 96 % 1008,2 hPa 0,0 l/m 0 min 2 min 0,0 UV-I 25 W/m 14,6 km/h (3 Bft)
28.06.2014 20:06 15,7 C 14,4 C 96 % 1008,2 hPa 0,0 l/m 0 min 2 min 0,0 UV-I 26 W/m 10,5 km/h (2 Bft)
28.06.2014 20:08 15,7 C 14,4 C 96 % 1008,1 hPa 0,0 l/m 0 min 2 min 0,0 UV-I 32 W/m 8,4 km/h (2 Bft)
28.06.2014 20:10 15,6 C 14,4 C 96 % 1008,1 hPa 0,0 l/m 0 min 2 min 0,0 UV-I 32 W/m 12,6 km/h (3 Bft)
28.06.2014 20:12 15,6 C 14,4 C 96 % 1008,1 hPa 0,0 l/m 0 min 2 min 0,0 UV-I 30 W/m 8,4 km/h (2 Bft)
28.06.2014 20:14 15,6 C 14,4 C 96 % 1008,1 hPa 0,0 l/m 0 min 2 min 0,0 UV-I 26 W/m 8,4 km/h (2 Bft)
28.06.2014 20:16 15,5 C 14,4 C 97 % 1008,1 hPa 0,0 l/m 0 min 2 min 0,0 UV-I 25 W/m 8,4 km/h (2 Bft)
28.06.2014 20:18 15,4 C 14,4 C 97 % 1008,1 hPa 0,0 l/m 0 min 2 min 0,0 UV-I 23 W/m 6,3 km/h (2 Bft)
28.06.2014 20:20 15,4 C 14,4 C 97 % 1008,1 hPa 0,2 l/m 0 min 2 min 0,0 UV-I 21 W/m 8,4 km/h (2 Bft)
28.06.2014 20:22 15,5 C 14,4 C 97 % 1008,1 hPa 0,0 l/m 0 min 2 min 0,0 UV-I 21 W/m 6,3 km/h (2 Bft)
28.06.2014 20:24 15,5 C 14,4 C 97 % 1008,1 hPa 0,0 l/m 0 min 2 min 0,0 UV-I 21 W/m 6,3 km/h (2 Bft)
28.06.2014 20:26 15,4 C 14,4 C 97 % 1008,0 hPa 0,0 l/m 0 min 2 min 0,0 UV-I 21 W/m 0,0 km/h (0 Bft)
28.06.2014 20:28 15,4 C 14,4 C 97 % 1008,1 hPa 0,0 l/m 0 min 2 min 0,0 UV-I 21 W/m 0,0 km/h (0 Bft)
28.06.2014 20:30 15,4 C 14,4 C 97 % 1008,1 hPa 0,0 l/m 0 min 2 min 0,0 UV-I 19 W/m 0,0 km/h (0 Bft)
28.06.2014 20:32 15,3 C 13,9 C 97 % 1008,0 hPa 0,0 l/m 0 min 2 min 0,0 UV-I 19 W/m 0,0 km/h (0 Bft)
28.06.2014 20:34 15,3 C 14,4 C 97 % 1008,0 hPa 0,0 l/m 0 min 2 min 0,0 UV-I 19 W/m 0,0 km/h (0 Bft)
28.06.2014 20:36 15,2 C 14,4 C 97 % 1008,1 hPa 0,0 l/m 0 min 2 min 0,0 UV-I 19 W/m 0,0 km/h (0 Bft)
28.06.2014 20:38 15,2 C 13,9 C 97 % 1008,1 hPa 0,0 l/m 0 min 2 min 0,0 UV-I 19 W/m 0,0 km/h (0 Bft)
28.06.2014 20:40 15,2 C 13,9 C 97 % 1008,1 hPa 0,0 l/m 0 min 2 min 0,0 UV-I 19 W/m 4,2 km/h (1 Bft)
28.06.2014 20:42 15,2 C 13,9 C 97 % 1008,1 hPa 0,2 l/m 0 min 2 min 0,0 UV-I 18 W/m 0,0 km/h (0 Bft)
28.06.2014 20:44 15,1 C 13,9 C 97 % 1008,1 hPa 0,0 l/m 0 min 2 min 0,0 UV-I 16 W/m 0,0 km/h (0 Bft)
28.06.2014 20:46 15,1 C 13,9 C 97 % 1008,0 hPa 0,0 l/m 0 min 2 min 0,0 UV-I 16 W/m 0,0 km/h (0 Bft)
28.06.2014 20:48 15,1 C 13,9 C 97 % 1008,1 hPa 0,0 l/m 0 min 2 min 0,0 UV-I 18 W/m 2,1 km/h (1 Bft)
28.06.2014 20:50 15,1 C 13,9 C 97 % 1008,0 hPa 0,0 l/m 0 min 2 min 0,0 UV-I 18 W/m 0,0 km/h (0 Bft)
28.06.2014 20:52 15,1 C 13,9 C 97 % 1007,9 hPa 0,0 l/m 0 min 2 min 0,0 UV-I 18 W/m 0,0 km/h (0 Bft)
28.06.2014 20:54 15,1 C 13,9 C 97 % 1007,9 hPa 0,0 l/m 0 min 2 min 0,0 UV-I 18 W/m 0,0 km/h (0 Bft)
28.06.2014 20:56 15,2 C 13,9 C 97 % 1007,9 hPa 0,0 l/m 0 min 2 min 0,0 UV-I 18 W/m 0,0 km/h (0 Bft)
28.06.2014 20:58 15,2 C 13,9 C 97 % 1007,8 hPa 0,0 l/m 0 min 2 min 0,0 UV-I 18 W/m 0,0 km/h (0 Bft)
28.06.2014 21:00 15,2 C 13,9 C 97 % 1007,8 hPa 0,0 l/m 0 min 2 min 0,0 UV-I 16 W/m 0,0 km/h (0 Bft)
28.06.2014 21:02 15,1 C 13,9 C 97 % 1007,8 hPa 0,0 l/m 0 min 2 min 0,0 UV-I 16 W/m 0,0 km/h (0 Bft)
28.06.2014 21:04 15,1 C 13,9 C 97 % 1007,8 hPa 0,0 l/m 0 min 2 min 0,0 UV-I 14 W/m 0,0 km/h (0 Bft)
28.06.2014 21:06 15,1 C 13,9 C 97 % 1007,7 hPa 0,0 l/m 0 min 0 min 0,0 UV-I 12 W/m 0,0 km/h (0 Bft)
28.06.2014 21:08 15,1 C 13,9 C 97 % 1007,7 hPa 0,0 l/m 0 min 0 min 0,0 UV-I 12 W/m 0,0 km/h (0 Bft)
28.06.2014 21:10 15,1 C 13,9 C 97 % 1007,7 hPa 0,0 l/m 0 min 0 min 0,0 UV-I 11 W/m 0,0 km/h (0 Bft)
28.06.2014 21:12 15,1 C 13,9 C 97 % 1007,7 hPa 0,0 l/m 0 min 0 min 0,0 UV-I 11 W/m 0,0 km/h (0 Bft)
28.06.2014 21:14 15,0 C 13,9 C 97 % 1007,7 hPa 0,0 l/m 0 min 0 min 0,0 UV-I 11 W/m 0,0 km/h (0 Bft)
28.06.2014 21:16 15,0 C 13,9 C 97 % 1007,6 hPa 0,0 l/m 0 min 0 min 0,0 UV-I 11 W/m 0,0 km/h (0 Bft)
28.06.2014 21:18 15,0 C 13,9 C 97 % 1007,6 hPa 0,0 l/m 0 min 0 min 0,0 UV-I 9 W/m 0,0 km/h (0 Bft)
28.06.2014 21:20 15,0 C 13,9 C 97 % 1007,6 hPa 0,0 l/m 0 min 0 min 0,0 UV-I 9 W/m 0,0 km/h (0 Bft)
28.06.2014 21:22 15,0 C 13,9 C 97 % 1007,5 hPa 0,0 l/m 0 min 0 min 0,0 UV-I 7 W/m 0,0 km/h (0 Bft)
28.06.2014 21:24 15,0 C 13,9 C 97 % 1007,6 hPa 0,0 l/m 0 min 0 min 0,0 UV-I 5 W/m 0,0 km/h (0 Bft)
28.06.2014 21:26 14,9 C 13,9 C 97 % 1007,6 hPa 0,0 l/m 0 min 0 min 0,0 UV-I 5 W/m 0,0 km/h (0 Bft)
28.06.2014 21:28 14,9 C 13,9 C 97 % 1007,6 hPa 0,0 l/m 0 min 0 min 0,0 UV-I 5 W/m 0,0 km/h (0 Bft)
28.06.2014 21:30 15,0 C 13,9 C 97 % 1007,6 hPa 0,0 l/m 0 min 0 min 0,0 UV-I 0 W/m 0,0 km/h (0 Bft)
28.06.2014 21:32 15,1 C 13,9 C 97 % 1007,5 hPa 0,0 l/m 0 min 0 min 0,0 UV-I 0 W/m 0,0 km/h (0 Bft)
28.06.2014 21:34 15,1 C 13,9 C 97 % 1007,6 hPa 0,0 l/m 0 min 0 min 0,0 UV-I 0 W/m 0,0 km/h (0 Bft)
28.06.2014 21:36 15,1 C 13,9 C 97 % 1007,6 hPa 0,0 l/m 0 min 0 min 0,0 UV-I 0 W/m 0,0 km/h (0 Bft)
28.06.2014 21:38 15,1 C 13,9 C 97 % 1007,6 hPa 0,0 l/m 0 min 0 min 0,0 UV-I 0 W/m 0,0 km/h (0 Bft)
28.06.2014 21:40 15,1 C 13,9 C 97 % 1007,6 hPa 0,0 l/m 0 min 0 min 0,0 UV-I 0 W/m 0,0 km/h (0 Bft)
28.06.2014 21:42 15,1 C 13,9 C 97 % 1007,6 hPa 0,0 l/m 0 min 0 min 0,0 UV-I 0 W/m 0,0 km/h (0 Bft)
28.06.2014 21:44 15,1 C 13,9 C 98 % 1007,6 hPa 0,0 l/m 0 min 0 min 0,0 UV-I 0 W/m 0,0 km/h (0 Bft)
28.06.2014 21:46 15,0 C 13,9 C 98 % 1007,6 hPa 0,0 l/m 0 min 0 min 0,0 UV-I 0 W/m 0,0 km/h (0 Bft)
28.06.2014 21:48 15,0 C 13,9 C 98 % 1007,7 hPa 0,0 l/m 0 min 0 min 0,0 UV-I 0 W/m 0,0 km/h (0 Bft)
28.06.2014 21:50 15,0 C 13,9 C 98 % 1007,6 hPa 0,0 l/m 0 min 0 min 0,0 UV-I 0 W/m 0,0 km/h (0 Bft)
28.06.2014 21:52 15,0 C 13,9 C 98 % 1007,7 hPa 0,0 l/m 0 min 0 min 0,0 UV-I 0 W/m 0,0 km/h (0 Bft)
28.06.2014 21:54 14,9 C 13,9 C 98 % 1007,7 hPa 0,0 l/m 0 min 0 min 0,0 UV-I 0 W/m 0,0 km/h (0 Bft)
28.06.2014 21:56 14,9 C 13,9 C 98 % 1007,7 hPa 0,0 l/m 0 min 0 min 0,0 UV-I 0 W/m 0,0 km/h (0 Bft)
28.06.2014 21:58 14,9 C 13,9 C 98 % 1007,7 hPa 0,0 l/m 0 min 0 min 0,0 UV-I 0 W/m 0,0 km/h (0 Bft)
28.06.2014 22:00 14,9 C 13,9 C 98 % 1007,6 hPa 0,0 l/m 0 min 0 min 0,0 UV-I 0 W/m 0,0 km/h (0 Bft)
28.06.2014 22:02 14,9 C 13,9 C 98 % 1007,6 hPa 0,0 l/m 0 min 0 min 0,0 UV-I 0 W/m 0,0 km/h (0 Bft)
28.06.2014 22:04 14,8 C 13,9 C 98 % 1007,6 hPa 0,0 l/m 0 min 0 min 0,0 UV-I 0 W/m 0,0 km/h (0 Bft)
28.06.2014 22:06 14,8 C 13,9 C 98 % 1007,7 hPa 0,0 l/m 0 min 0 min 0,0 UV-I 0 W/m 0,0 km/h (0 Bft)
28.06.2014 22:08 14,8 C 13,9 C 98 % 1007,7 hPa 0,0 l/m 0 min 0 min 0,0 UV-I 0 W/m 0,0 km/h (0 Bft)
28.06.2014 22:10 14,9 C 13,9 C 98 % 1007,7 hPa 0,0 l/m 0 min 0 min 0,0 UV-I 0 W/m 0,0 km/h (0 Bft)
28.06.2014 22:12 14,9 C 13,9 C 98 % 1007,7 hPa 0,0 l/m 0 min 0 min 0,0 UV-I 0 W/m 0,0 km/h (0 Bft)
28.06.2014 22:14 14,9 C 13,9 C 98 % 1007,7 hPa 0,0 l/m 0 min 0 min 0,0 UV-I 0 W/m 0,0 km/h (0 Bft)
28.06.2014 22:16 14,9 C 13,9 C 98 % 1007,7 hPa 0,0 l/m 0 min 0 min 0,0 UV-I 0 W/m 0,0 km/h (0 Bft)
28.06.2014 22:18 14,9 C 13,9 C 98 % 1007,8 hPa 0,0 l/m 0 min 0 min 0,0 UV-I 0 W/m 0,0 km/h (0 Bft)
28.06.2014 22:20 14,9 C 13,9 C 98 % 1007,8 hPa 0,0 l/m 0 min 0 min 0,0 UV-I 0 W/m 0,0 km/h (0 Bft)
28.06.2014 22:22 14,9 C 13,9 C 98 % 1007,8 hPa 0,0 l/m 0 min 0 min 0,0 UV-I 0 W/m 0,0 km/h (0 Bft)
28.06.2014 22:24 14,9 C 13,9 C 98 % 1007,8 hPa 0,0 l/m 0 min 0 min 0,0 UV-I 0 W/m 0,0 km/h (0 Bft)
28.06.2014 22:26 14,9 C 13,9 C 98 % 1007,8 hPa 0,0 l/m 0 min 0 min 0,0 UV-I 0 W/m 0,0 km/h (0 Bft)
28.06.2014 22:28 14,8 C 13,9 C 98 % 1007,8 hPa 0,0 l/m 0 min 0 min 0,0 UV-I 0 W/m 0,0 km/h (0 Bft)
28.06.2014 22:30 14,8 C 13,9 C 98 % 1007,9 hPa 0,0 l/m 0 min 0 min 0,0 UV-I 0 W/m 0,0 km/h (0 Bft)
28.06.2014 22:32 14,8 C 13,9 C 98 % 1007,9 hPa 0,0 l/m 0 min 0 min 0,0 UV-I 0 W/m 0,0 km/h (0 Bft)
28.06.2014 22:34 14,8 C 13,9 C 98 % 1008,0 hPa 0,0 l/m 0 min 0 min 0,0 UV-I 0 W/m 0,0 km/h (0 Bft)
28.06.2014 22:36 14,8 C 13,9 C 98 % 1007,9 hPa 0,0 l/m 0 min 0 min 0,0 UV-I 0 W/m 0,0 km/h (0 Bft)
28.06.2014 22:38 14,8 C 13,3 C 98 % 1007,8 hPa 0,0 l/m 0 min 0 min 0,0 UV-I 0 W/m 0,0 km/h (0 Bft)
28.06.2014 22:40 14,8 C 13,9 C 98 % 1007,7 hPa 0,0 l/m 0 min 0 min 0,0 UV-I 0 W/m 0,0 km/h (0 Bft)
28.06.2014 22:42 14,7 C 13,9 C 98 % 1007,7 hPa 0,0 l/m 0 min 0 min 0,0 UV-I 0 W/m 0,0 km/h (0 Bft)
28.06.2014 22:44 14,7 C 13,9 C 98 % 1007,8 hPa 0,0 l/m 0 min 0 min 0,0 UV-I 0 W/m 0,0 km/h (0 Bft)
28.06.2014 22:46 14,7 C 13,9 C 98 % 1007,8 hPa 0,0 l/m 0 min 0 min 0,0 UV-I 0 W/m 0,0 km/h (0 Bft)
28.06.2014 22:48 14,7 C 13,3 C 98 % 1008,0 hPa 0,0 l/m 0 min 0 min 0,0 UV-I 0 W/m 0,0 km/h (0 Bft)
28.06.2014 22:50 14,7 C 13,9 C 98 % 1007,9 hPa 0,0 l/m 0 min 0 min 0,0 UV-I 0 W/m 0,0 km/h (0 Bft)
28.06.2014 22:52 14,7 C 13,9 C 98 % 1007,9 hPa 0,0 l/m 0 min 0 min 0,0 UV-I 0 W/m 0,0 km/h (0 Bft)
28.06.2014 22:54 14,7 C 13,9 C 98 % 1007,8 hPa 0,0 l/m 0 min 0 min 0,0 UV-I 0 W/m 0,0 km/h (0 Bft)
28.06.2014 22:56 14,6 C 13,3 C 98 % 1007,8 hPa 0,0 l/m 0 min 0 min 0,0 UV-I 0 W/m 0,0 km/h (0 Bft)
28.06.2014 22:58 14,6 C 13,3 C 98 % 1007,7 hPa 0,0 l/m 0 min 0 min 0,0 UV-I 0 W/m 0,0 km/h (0 Bft)
28.06.2014 23:00 14,6 C 13,3 C 98 % 1007,7 hPa 0,0 l/m 0 min 0 min 0,0 UV-I 0 W/m 0,0 km/h (0 Bft)
28.06.2014 23:02 14,6 C 13,3 C 98 % 1007,6 hPa 0,0 l/m 0 min 0 min 0,0 UV-I 0 W/m 0,0 km/h (0 Bft)
28.06.2014 23:04 14,6 C 13,3 C 98 % 1007,7 hPa 0,0 l/m 0 min 0 min 0,0 UV-I 0 W/m 0,0 km/h (0 Bft)
28.06.2014 23:06 14,6 C 13,3 C 99 % 1007,7 hPa 0,0 l/m 0 min 0 min 0,0 UV-I 0 W/m 0,0 km/h (0 Bft)
28.06.2014 23:08 14,6 C 13,3 C 99 % 1007,6 hPa 0,0 l/m 0 min 0 min 0,0 UV-I 0 W/m 0,0 km/h (0 Bft)
28.06.2014 23:10 14,6 C 13,3 C 99 % 1007,6 hPa 0,0 l/m 0 min 0 min 0,0 UV-I 0 W/m 0,0 km/h (0 Bft)
28.06.2014 23:12 14,6 C 13,3 C 99 % 1007,6 hPa 0,0 l/m 0 min 0 min 0,0 UV-I 0 W/m 0,0 km/h (0 Bft)
28.06.2014 23:14 14,6 C 13,3 C 99 % 1007,5 hPa 0,0 l/m 0 min 0 min 0,0 UV-I 0 W/m 0,0 km/h (0 Bft)
28.06.2014 23:16 14,6 C 13,3 C 99 % 1007,5 hPa 0,0 l/m 0 min 0 min 0,0 UV-I 0 W/m 0,0 km/h (0 Bft)
28.06.2014 23:18 14,6 C 13,3 C 99 % 1007,5 hPa 0,0 l/m 0 min 0 min 0,0 UV-I 0 W/m 0,0 km/h (0 Bft)
28.06.2014 23:20 14,6 C 13,3 C 99 % 1007,4 hPa 0,0 l/m 0 min 0 min 0,0 UV-I 0 W/m 0,0 km/h (0 Bft)
28.06.2014 23:22 14,6 C 13,3 C 99 % 1007,4 hPa 0,0 l/m 0 min 0 min 0,0 UV-I 0 W/m 0,0 km/h (0 Bft)
28.06.2014 23:24 14,6 C 13,3 C 99 % 1007,4 hPa 0,0 l/m 0 min 0 min 0,0 UV-I 0 W/m 0,0 km/h (0 Bft)
28.06.2014 23:26 14,5 C 13,3 C 98 % 1007,4 hPa 0,0 l/m 0 min 0 min 0,0 UV-I 0 W/m 0,0 km/h (0 Bft)
28.06.2014 23:28 14,6 C 13,3 C 99 % 1007,5 hPa 0,0 l/m 0 min 0 min 0,0 UV-I 0 W/m 0,0 km/h (0 Bft)
28.06.2014 23:30 14,5 C 13,3 C 98 % 1007,4 hPa 0,0 l/m 0 min 0 min 0,0 UV-I 0 W/m 0,0 km/h (0 Bft)
28.06.2014 23:32 14,5 C 13,3 C 98 % 1007,3 hPa 0,0 l/m 0 min 0 min 0,0 UV-I 0 W/m 0,0 km/h (0 Bft)
28.06.2014 23:34 14,5 C 13,3 C 98 % 1007,4 hPa 0,0 l/m 0 min 0 min 0,0 UV-I 0 W/m 0,0 km/h (0 Bft)
28.06.2014 23:36 14,5 C 13,3 C 98 % 1007,4 hPa 0,0 l/m 0 min 0 min 0,0 UV-I 0 W/m 0,0 km/h (0 Bft)
28.06.2014 23:38 14,5 C 13,3 C 99 % 1007,3 hPa 0,0 l/m 0 min 0 min 0,0 UV-I 0 W/m 0,0 km/h (0 Bft)
28.06.2014 23:40 14,5 C 13,3 C 99 % 1007,3 hPa 0,0 l/m 0 min 0 min 0,0 UV-I 0 W/m 2,1 km/h (1 Bft)
28.06.2014 23:42 14,5 C 13,3 C 99 % 1007,3 hPa 0,0 l/m 0 min 0 min 0,0 UV-I 0 W/m 0,0 km/h (0 Bft)
28.06.2014 23:44 14,5 C 13,3 C 99 % 1007,3 hPa 0,0 l/m 0 min 0 min 0,0 UV-I 0 W/m 0,0 km/h (0 Bft)
28.06.2014 23:46 14,4 C 13,3 C 99 % 1007,3 hPa 0,0 l/m 0 min 0 min 0,0 UV-I 0 W/m 0,0 km/h (0 Bft)
28.06.2014 23:48 14,4 C 13,3 C 99 % 1007,3 hPa 0,0 l/m 0 min 0 min 0,0 UV-I 0 W/m 0,0 km/h (0 Bft)
28.06.2014 23:50 14,4 C 13,3 C 99 % 1007,2 hPa 0,0 l/m 0 min 0 min 0,0 UV-I 0 W/m 2,1 km/h (1 Bft)
28.06.2014 23:52 14,4 C 13,3 C 99 % 1007,2 hPa 0,0 l/m 0 min 0 min 0,0 UV-I 0 W/m 0,0 km/h (0 Bft)
28.06.2014 23:54 14,4 C 13,3 C 99 % 1007,3 hPa 0,0 l/m 0 min 0 min 0,0 UV-I 0 W/m 0,0 km/h (0 Bft)
28.06.2014 23:56 14,4 C 13,3 C 99 % 1007,3 hPa 0,0 l/m 0 min 0 min 0,0 UV-I 0 W/m 0,0 km/h (0 Bft)
28.06.2014 23:58 14,4 C 13,3 C 99 % 1007,3 hPa 0,0 l/m 0 min 0 min 0,0 UV-I 0 W/m 0,0 km/h (0 Bft)
_ Min-Zeit 04:34 03:12 12:38 23:50 - - - - - 00:08
Minimum _ 12,9 C 11,7 C 77 % 1007,2 hPa - - - - - 0,0 km/h (0 Bft)
_ Max-Zeit 12:12 12:00 01:08 00:05 01:06 05:36 13:12 12:00 10:16 02:34
Maximum _ 19,3 C 19,4 C 100 % 1013,4 hPa 0,2 l/m 2 min 2 min 2,6 UV-I 675 W/m 18,8 km/h
S-SW (3 Bft)
Durchschnitt _ 15,3 C 14,3 C 94 % 1010,8 hPa #4,4 l/m #1:22 h #7:44 h 1,1 UV-I 158 W/m 4,1 km/h (1 Bft)
© 2014 W. Hausmann